AEA083 LEMD-SBSV
Flight info
| Callsign | AEA083 |
|---|---|
| Flight time | N/A |
| Altitude | 33000 |
| Route | VTB6L VTB N10 SVL N857 KORNO UN857 IBALU/N0492F350 UN857 TERTO N857 DEREV/N0496F340 N857 ETIBA/N0497F360 N857 GUNET UW11 CVS/N0513F280 UB623 FNR/N0493F380 UN857 AMBET UZ14 AKPAS AKPAS1A |
| Aircraft | B789/H-SDE1E2E3FGHIJ2J3J4J5M1RWXY/LB1D1 |
Departure
| Time | 2026-04-30 05:31 |
|---|---|
| Airport | Adolfo Suárez Madrid–Barajas Airport (LEMD) |
Arrival
| Time | N/A |
|---|---|
| Airport | Deputado Luiz Eduardo Magalhães International Airport (SBSV) |
| Time | Latitude | Longitude | Altitude | Speed | Heading |
|---|---|---|---|---|---|
| 2026-04-30 05:21 | 40.45773 | -3.57199 | 1978 ft | 0 kts | 224° |
| 2026-04-30 05:23 | 40.45772 | -3.57201 | 1975 ft | 3 kts | 224° |
| 2026-04-30 05:23 | 40.45725 | -3.57239 | 1980 ft | 12 kts | 187° |
| 2026-04-30 05:23 | 40.45655 | -3.57184 | 1981 ft | 11 kts | 123° |
| 2026-04-30 05:24 | 40.45657 | -3.57146 | 1981 ft | 6 kts | 59° |
| 2026-04-30 05:24 | 40.45715 | -3.57068 | 1980 ft | 18 kts | 43° |
| 2026-04-30 05:24 | 40.45833 | -3.56915 | 1979 ft | 26 kts | 47° |
| 2026-04-30 05:24 | 40.45960 | -3.56762 | 1981 ft | 24 kts | 26° |
| 2026-04-30 05:25 | 40.46110 | -3.56758 | 1978 ft | 21 kts | 1° |
| 2026-04-30 05:25 | 40.46214 | -3.56693 | 1979 ft | 15 kts | 82° |
| 2026-04-30 05:25 | 40.46223 | -3.56541 | 1978 ft | 16 kts | 73° |
| 2026-04-30 05:25 | 40.46283 | -3.56501 | 1977 ft | 15 kts | 0° |
| 2026-04-30 05:26 | 40.46474 | -3.56488 | 1977 ft | 33 kts | 3° |
| 2026-04-30 05:26 | 40.46695 | -3.56475 | 1982 ft | 30 kts | 5° |
| 2026-04-30 05:26 | 40.46908 | -3.56454 | 1983 ft | 33 kts | 3° |
| 2026-04-30 05:26 | 40.47149 | -3.56512 | 1987 ft | 38 kts | 329° |
| 2026-04-30 05:27 | 40.47356 | -3.56718 | 1994 ft | 35 kts | 322° |
| 2026-04-30 05:27 | 40.47539 | -3.56904 | 1998 ft | 31 kts | 323° |
| 2026-04-30 05:27 | 40.47708 | -3.57076 | 2001 ft | 33 kts | 322° |
| 2026-04-30 05:27 | 40.47886 | -3.57259 | 2004 ft | 31 kts | 322° |
| 2026-04-30 05:28 | 40.48049 | -3.57424 | 2005 ft | 29 kts | 323° |
| 2026-04-30 05:28 | 40.48211 | -3.57588 | 2001 ft | 31 kts | 322° |
| 2026-04-30 05:28 | 40.48390 | -3.57768 | 1998 ft | 33 kts | 325° |
| 2026-04-30 05:28 | 40.48580 | -3.57903 | 2000 ft | 28 kts | 337° |
| 2026-04-30 05:29 | 40.48750 | -3.57892 | 2000 ft | 22 kts | 49° |
| 2026-04-30 05:29 | 40.48761 | -3.57689 | 1997 ft | 25 kts | 91° |
| 2026-04-30 05:29 | 40.48779 | -3.57600 | 1996 ft | 1 kts | 21° |
| 2026-04-30 05:29 | 40.48835 | -3.57614 | 1996 ft | 18 kts | 351° |
| 2026-04-30 05:30 | 40.48996 | -3.57617 | 1995 ft | 28 kts | 359° |
| 2026-04-30 05:30 | 40.49178 | -3.57603 | 1997 ft | 19 kts | 33° |
| 2026-04-30 05:30 | 40.49241 | -3.57469 | 1993 ft | 17 kts | 34° |
| 2026-04-30 05:30 | 40.49426 | -3.57454 | 1988 ft | 55 kts | 0° |
| 2026-04-30 05:31 | 40.50061 | -3.57460 | 1995 ft | 126 kts | 0° |
| 2026-04-30 05:31 | 40.51132 | -3.57466 | 2003 ft | 185 kts | 360° |
| 2026-04-30 05:31 | 40.52467 | -3.57493 | 2676 ft | 185 kts | 358° |
| 2026-04-30 05:31 | 40.53822 | -3.57510 | 3275 ft | 210 kts | 359° |
| 2026-04-30 05:32 | 40.55346 | -3.57561 | 4052 ft | 222 kts | 357° |
| 2026-04-30 05:32 | 40.56907 | -3.57592 | 4991 ft | 227 kts | 357° |
| 2026-04-30 05:32 | 40.58506 | -3.57598 | 5902 ft | 232 kts | 357° |
| 2026-04-30 05:32 | 40.60119 | -3.57585 | 6907 ft | 231 kts | 358° |
| 2026-04-30 05:33 | 40.61736 | -3.57637 | 7709 ft | 235 kts | 347° |
| 2026-04-30 05:33 | 40.63135 | -3.58639 | 8398 ft | 238 kts | 315° |
| 2026-04-30 05:33 | 40.63952 | -3.60585 | 8744 ft | 255 kts | 275° |
| 2026-04-30 05:33 | 40.63687 | -3.62943 | 9191 ft | 272 kts | 242° |
| 2026-04-30 05:34 | 40.62504 | -3.64820 | 10066 ft | 273 kts | 212° |
| 2026-04-30 05:34 | 40.60661 | -3.65650 | 10507 ft | 297 kts | 183° |
| 2026-04-30 05:34 | 40.58513 | -3.65365 | 10748 ft | 325 kts | 171° |
| 2026-04-30 05:34 | 40.56221 | -3.64632 | 10957 ft | 351 kts | 168° |
| 2026-04-30 05:35 | 40.53824 | -3.63870 | 11717 ft | 355 kts | 171° |
| 2026-04-30 05:35 | 40.51369 | -3.63306 | 12508 ft | 360 kts | 174° |
| 2026-04-30 05:35 | 40.48875 | -3.62810 | 13299 ft | 366 kts | 174° |
| 2026-04-30 05:35 | 40.46323 | -3.62229 | 13755 ft | 383 kts | 173° |
| 2026-04-30 05:36 | 40.43655 | -3.61570 | 14005 ft | 388 kts | 173° |
| 2026-04-30 05:36 | 40.41015 | -3.60933 | 14375 ft | 388 kts | 173° |
| 2026-04-30 05:36 | 40.38302 | -3.60318 | 14776 ft | 401 kts | 173° |
| 2026-04-30 05:36 | 40.35505 | -3.59679 | 15211 ft | 414 kts | 173° |
| 2026-04-30 05:37 | 40.32632 | -3.59004 | 15654 ft | 425 kts | 173° |
| 2026-04-30 05:37 | 40.29689 | -3.58311 | 16101 ft | 435 kts | 173° |
| 2026-04-30 05:37 | 40.26672 | -3.57611 | 16549 ft | 444 kts | 173° |
| 2026-04-30 05:37 | 40.23598 | -3.56902 | 17002 ft | 452 kts | 173° |
| 2026-04-30 05:38 | 40.20527 | -3.56188 | 17460 ft | 456 kts | 173° |
| 2026-04-30 05:38 | 40.17348 | -3.55449 | 17912 ft | 459 kts | 173° |
| 2026-04-30 05:38 | 40.14184 | -3.54716 | 18439 ft | 463 kts | 173° |
| 2026-04-30 05:38 | 40.11028 | -3.53987 | 18906 ft | 468 kts | 173° |
| 2026-04-30 05:39 | 40.07810 | -3.53244 | 19383 ft | 472 kts | 173° |
| 2026-04-30 05:39 | 40.04556 | -3.52492 | 19878 ft | 475 kts | 173° |
| 2026-04-30 05:39 | 40.01290 | -3.51737 | 20367 ft | 478 kts | 173° |
| 2026-04-30 05:39 | 39.98011 | -3.50983 | 20862 ft | 480 kts | 173° |
| 2026-04-30 05:40 | 39.94717 | -3.50223 | 21352 ft | 481 kts | 174° |
| 2026-04-30 05:40 | 39.91416 | -3.49464 | 21865 ft | 482 kts | 174° |
| 2026-04-30 05:40 | 39.88106 | -3.48704 | 22393 ft | 483 kts | 174° |
| 2026-04-30 05:40 | 39.84785 | -3.48274 | 22901 ft | 476 kts | 184° |
| 2026-04-30 05:41 | 39.81502 | -3.48607 | 23446 ft | 471 kts | 194° |
| 2026-04-30 05:41 | 39.78390 | -3.49640 | 23924 ft | 465 kts | 203° |
| 2026-04-30 05:41 | 39.75457 | -3.51338 | 24397 ft | 459 kts | 213° |
| 2026-04-30 05:41 | 39.72781 | -3.53651 | 24859 ft | 454 kts | 222° |
| 2026-04-30 05:42 | 39.70508 | -3.56389 | 25342 ft | 449 kts | 228° |
| 2026-04-30 05:42 | 39.68305 | -3.59272 | 25816 ft | 448 kts | 228° |
| 2026-04-30 05:42 | 39.66117 | -3.62145 | 26294 ft | 447 kts | 228° |
| 2026-04-30 05:42 | 39.63937 | -3.65019 | 26801 ft | 446 kts | 228° |
| 2026-04-30 05:43 | 39.61761 | -3.67878 | 27279 ft | 445 kts | 228° |
| 2026-04-30 05:43 | 39.59583 | -3.70727 | 27795 ft | 443 kts | 228° |
| 2026-04-30 05:43 | 39.57415 | -3.73564 | 28304 ft | 442 kts | 228° |
| 2026-04-30 05:43 | 39.55259 | -3.76387 | 28816 ft | 440 kts | 228° |
| 2026-04-30 05:44 | 39.53110 | -3.79197 | 29349 ft | 438 kts | 228° |
| 2026-04-30 05:44 | 39.50974 | -3.81987 | 29857 ft | 435 kts | 228° |
| 2026-04-30 05:44 | 39.48845 | -3.84763 | 30356 ft | 433 kts | 228° |
| 2026-04-30 05:44 | 39.46730 | -3.87520 | 30814 ft | 430 kts | 228° |
| 2026-04-30 05:45 | 39.44622 | -3.90264 | 31280 ft | 427 kts | 228° |
| 2026-04-30 05:45 | 39.42534 | -3.92981 | 31753 ft | 424 kts | 228° |
| 2026-04-30 05:45 | 39.40459 | -3.95679 | 32229 ft | 421 kts | 228° |
| 2026-04-30 05:45 | 39.38404 | -3.98348 | 32719 ft | 418 kts | 228° |
| 2026-04-30 05:46 | 39.36352 | -4.01010 | 33053 ft | 418 kts | 228° |
| 2026-04-30 05:46 | 39.34279 | -4.03702 | 33057 ft | 426 kts | 228° |
| 2026-04-30 05:46 | 39.30754 | -4.08268 | 33079 ft | 438 kts | 228° |
| 2026-04-30 05:47 | 39.25659 | -4.14851 | 33075 ft | 453 kts | 228° |
| 2026-04-30 05:47 | 39.21143 | -4.20675 | 33079 ft | 465 kts | 227° |
| 2026-04-30 05:48 | 39.17278 | -4.25652 | 33076 ft | 473 kts | 227° |
| 2026-04-30 05:48 | 39.12611 | -4.31644 | 33858 ft | 462 kts | 227° |
| 2026-04-30 05:49 | 39.10345 | -4.34550 | 34252 ft | 460 kts | 227° |
| 2026-04-30 05:49 | 39.08106 | -4.37428 | 34466 ft | 460 kts | 227° |
| 2026-04-30 05:49 | 39.05843 | -4.40329 | 34713 ft | 459 kts | 227° |
| 2026-04-30 05:49 | 39.03546 | -4.43265 | 34946 ft | 459 kts | 227° |
| 2026-04-30 05:50 | 39.01311 | -4.46121 | 35095 ft | 460 kts | 227° |
| 2026-04-30 05:50 | 38.99040 | -4.49023 | 35332 ft | 459 kts | 227° |
| 2026-04-30 05:50 | 38.96778 | -4.51910 | 35562 ft | 459 kts | 227° |
| 2026-04-30 05:50 | 38.94515 | -4.54794 | 35732 ft | 460 kts | 227° |
| 2026-04-30 05:51 | 38.89926 | -4.60636 | 35839 ft | 466 kts | 227° |
| 2026-04-30 05:51 | 38.85289 | -4.66526 | 35988 ft | 470 kts | 227° |
| 2026-04-30 05:52 | 38.80637 | -4.72424 | 36136 ft | 470 kts | 226° |
| 2026-04-30 05:52 | 38.76020 | -4.78266 | 36275 ft | 469 kts | 226° |
| 2026-04-30 05:53 | 38.71367 | -4.84143 | 36418 ft | 469 kts | 226° |
| 2026-04-30 05:53 | 38.66719 | -4.90002 | 36566 ft | 469 kts | 226° |
| 2026-04-30 05:54 | 38.62067 | -4.95856 | 36737 ft | 469 kts | 226° |
| 2026-04-30 05:54 | 38.57415 | -5.01697 | 36869 ft | 469 kts | 226° |
| 2026-04-30 05:55 | 38.52755 | -5.07521 | 37006 ft | 468 kts | 223° |
| 2026-04-30 05:55 | 38.47316 | -5.12147 | 37078 ft | 475 kts | 208° |
| 2026-04-30 05:56 | 38.41418 | -5.15819 | 37085 ft | 473 kts | 208° |
| 2026-04-30 05:56 | 38.35502 | -5.19487 | 37078 ft | 472 kts | 208° |
| 2026-04-30 05:57 | 38.29599 | -5.23151 | 37078 ft | 473 kts | 208° |
| 2026-04-30 05:57 | 38.23673 | -5.26814 | 37078 ft | 473 kts | 208° |
| 2026-04-30 05:58 | 38.17739 | -5.30481 | 37077 ft | 475 kts | 208° |
| 2026-04-30 05:58 | 38.11797 | -5.34143 | 37079 ft | 474 kts | 208° |
| 2026-04-30 05:59 | 38.05902 | -5.37771 | 37062 ft | 473 kts | 208° |
| 2026-04-30 05:59 | 37.99980 | -5.41408 | 37072 ft | 473 kts | 208° |
| 2026-04-30 06:00 | 37.94058 | -5.45040 | 37067 ft | 472 kts | 208° |
| 2026-04-30 06:00 | 37.88137 | -5.48663 | 37071 ft | 473 kts | 208° |
| 2026-04-30 06:01 | 37.82202 | -5.52290 | 37061 ft | 474 kts | 208° |
| 2026-04-30 06:01 | 37.76277 | -5.55903 | 37058 ft | 475 kts | 208° |
| 2026-04-30 06:02 | 37.70329 | -5.59523 | 37058 ft | 474 kts | 208° |
| 2026-04-30 06:02 | 37.64397 | -5.63128 | 37053 ft | 473 kts | 207° |
| 2026-04-30 06:03 | 37.58463 | -5.66728 | 37061 ft | 472 kts | 207° |
| 2026-04-30 06:03 | 37.52519 | -5.70327 | 37074 ft | 475 kts | 207° |
| 2026-04-30 06:04 | 37.46581 | -5.73916 | 37079 ft | 476 kts | 207° |
| 2026-04-30 06:05 | 37.38405 | -5.80870 | 37082 ft | 475 kts | 220° |
| 2026-04-30 06:05 | 37.33368 | -5.86228 | 37085 ft | 474 kts | 221° |
| 2026-04-30 06:06 | 37.28337 | -5.91580 | 37049 ft | 474 kts | 220° |
| 2026-04-30 06:06 | 37.23290 | -5.96932 | 37049 ft | 475 kts | 220° |
| 2026-04-30 06:07 | 37.18229 | -6.02294 | 37054 ft | 476 kts | 220° |
| 2026-04-30 06:07 | 37.13196 | -6.07612 | 37056 ft | 476 kts | 220° |
| 2026-04-30 06:08 | 37.08129 | -6.12960 | 37044 ft | 475 kts | 220° |
| 2026-04-30 06:08 | 37.03075 | -6.18283 | 37049 ft | 476 kts | 220° |
| 2026-04-30 06:09 | 36.98009 | -6.23610 | 37049 ft | 476 kts | 220° |
| 2026-04-30 06:09 | 36.92938 | -6.28931 | 37056 ft | 476 kts | 220° |
| 2026-04-30 06:10 | 36.87861 | -6.34250 | 37056 ft | 476 kts | 220° |
| 2026-04-30 06:10 | 36.82780 | -6.39563 | 37053 ft | 476 kts | 220° |
| 2026-04-30 06:11 | 36.77690 | -6.44876 | 37047 ft | 476 kts | 220° |
| 2026-04-30 06:11 | 36.72604 | -6.50176 | 37047 ft | 477 kts | 219° |
| 2026-04-30 06:12 | 36.67509 | -6.55475 | 37049 ft | 477 kts | 219° |
| 2026-04-30 06:12 | 36.62428 | -6.60751 | 37051 ft | 478 kts | 219° |
| 2026-04-30 06:13 | 36.57326 | -6.66039 | 37052 ft | 478 kts | 219° |
| 2026-04-30 06:13 | 36.52215 | -6.71327 | 37048 ft | 477 kts | 219° |
| 2026-04-30 06:14 | 36.47115 | -6.76593 | 37047 ft | 477 kts | 219° |
| 2026-04-30 06:14 | 36.42006 | -6.81857 | 37046 ft | 476 kts | 219° |
| 2026-04-30 06:15 | 36.36904 | -6.87106 | 37068 ft | 476 kts | 219° |
| 2026-04-30 06:15 | 36.31781 | -6.92366 | 37063 ft | 478 kts | 219° |
| 2026-04-30 06:16 | 36.26655 | -6.97622 | 37060 ft | 477 kts | 219° |
| 2026-04-30 06:16 | 36.21533 | -7.02863 | 37065 ft | 477 kts | 219° |
| 2026-04-30 06:17 | 36.16417 | -7.08089 | 37068 ft | 477 kts | 219° |
| 2026-04-30 06:17 | 36.11298 | -7.13309 | 37063 ft | 477 kts | 219° |
| 2026-04-30 06:18 | 36.06209 | -7.18489 | 37062 ft | 476 kts | 219° |
| 2026-04-30 06:18 | 36.01086 | -7.23695 | 37064 ft | 477 kts | 218° |
| 2026-04-30 06:19 | 35.95948 | -7.28907 | 37070 ft | 478 kts | 218° |
| 2026-04-30 06:19 | 35.90792 | -7.34129 | 37072 ft | 479 kts | 218° |
| 2026-04-30 06:20 | 35.85634 | -7.39343 | 37074 ft | 479 kts | 218° |
| 2026-04-30 06:20 | 35.80473 | -7.44538 | 37070 ft | 479 kts | 218° |
| 2026-04-30 06:21 | 35.75289 | -7.49695 | 37069 ft | 479 kts | 218° |
| 2026-04-30 06:21 | 35.70136 | -7.54842 | 37069 ft | 479 kts | 218° |
| 2026-04-30 06:22 | 35.64962 | -7.59985 | 37077 ft | 479 kts | 218° |
| 2026-04-30 06:22 | 35.59774 | -7.65142 | 37067 ft | 480 kts | 218° |
| 2026-04-30 06:23 | 35.54565 | -7.70305 | 37071 ft | 481 kts | 218° |
| 2026-04-30 06:23 | 35.49371 | -7.75447 | 37071 ft | 479 kts | 218° |
| 2026-04-30 06:24 | 35.44223 | -7.80535 | 37061 ft | 477 kts | 218° |
| 2026-04-30 06:24 | 35.39058 | -7.85644 | 37059 ft | 478 kts | 219° |
| 2026-04-30 06:25 | 35.33919 | -7.90816 | 37062 ft | 478 kts | 218° |
| 2026-04-30 06:25 | 35.28750 | -7.95959 | 37064 ft | 479 kts | 218° |
| 2026-04-30 06:26 | 35.23585 | -8.01115 | 37066 ft | 479 kts | 218° |
| 2026-04-30 06:26 | 35.18420 | -8.06251 | 37063 ft | 477 kts | 218° |
| 2026-04-30 06:27 | 35.13276 | -8.11360 | 37064 ft | 476 kts | 218° |
| 2026-04-30 06:27 | 35.08139 | -8.16454 | 37063 ft | 476 kts | 218° |
| 2026-04-30 06:28 | 35.02999 | -8.21542 | 37058 ft | 476 kts | 218° |
| 2026-04-30 06:28 | 34.97848 | -8.26633 | 37059 ft | 476 kts | 218° |
| 2026-04-30 06:29 | 34.92729 | -8.31683 | 37057 ft | 475 kts | 219° |
| 2026-04-30 06:29 | 34.87559 | -8.36776 | 37066 ft | 476 kts | 219° |
| 2026-04-30 06:30 | 34.82428 | -8.41821 | 37068 ft | 478 kts | 219° |
| 2026-04-30 06:30 | 34.77258 | -8.46897 | 37070 ft | 477 kts | 218° |
| 2026-04-30 06:31 | 34.72094 | -8.51958 | 37069 ft | 476 kts | 218° |
| 2026-04-30 06:31 | 34.66938 | -8.57003 | 37065 ft | 474 kts | 219° |
| 2026-04-30 06:32 | 34.61801 | -8.62021 | 37060 ft | 474 kts | 219° |
| 2026-04-30 06:32 | 34.56652 | -8.67042 | 37063 ft | 476 kts | 219° |
| 2026-04-30 06:33 | 34.51484 | -8.72074 | 37081 ft | 477 kts | 219° |
| 2026-04-30 06:33 | 34.46296 | -8.77118 | 37063 ft | 478 kts | 219° |
| 2026-04-30 06:34 | 34.41143 | -8.82104 | 37057 ft | 476 kts | 218° |
| 2026-04-30 06:34 | 34.35966 | -8.87069 | 37054 ft | 474 kts | 218° |
| 2026-04-30 06:35 | 34.30794 | -8.92043 | 37057 ft | 475 kts | 218° |
| 2026-04-30 06:35 | 34.25602 | -8.97016 | 37059 ft | 476 kts | 218° |
| 2026-04-30 06:36 | 34.21282 | -9.01154 | 37059 ft | 477 kts | 218° |
| 2026-04-30 06:36 | 34.16069 | -9.06136 | 37066 ft | 478 kts | 218° |
| 2026-04-30 06:37 | 34.10854 | -9.11112 | 37074 ft | 477 kts | 218° |
| 2026-04-30 06:37 | 34.05635 | -9.16085 | 37072 ft | 478 kts | 218° |
| 2026-04-30 06:38 | 34.00414 | -9.21051 | 37071 ft | 478 kts | 218° |
| 2026-04-30 06:38 | 33.95195 | -9.26008 | 37071 ft | 476 kts | 218° |
| 2026-04-30 06:39 | 33.89995 | -9.30937 | 37063 ft | 475 kts | 218° |
| 2026-04-30 06:39 | 33.84795 | -9.35860 | 37062 ft | 476 kts | 218° |
| 2026-04-30 06:40 | 33.79638 | -9.40734 | 37060 ft | 474 kts | 218° |
| 2026-04-30 06:40 | 33.74439 | -9.45640 | 37061 ft | 475 kts | 218° |
| 2026-04-30 06:41 | 33.69218 | -9.50560 | 37071 ft | 478 kts | 218° |
| 2026-04-30 06:41 | 33.63988 | -9.55478 | 37073 ft | 477 kts | 218° |
| 2026-04-30 06:42 | 33.58759 | -9.60390 | 37075 ft | 477 kts | 218° |
| 2026-04-30 06:42 | 33.53545 | -9.65279 | 37065 ft | 474 kts | 218° |
| 2026-04-30 06:43 | 33.48350 | -9.70142 | 37064 ft | 474 kts | 218° |
| 2026-04-30 06:43 | 33.43141 | -9.75011 | 37064 ft | 474 kts | 218° |
| 2026-04-30 06:44 | 33.37969 | -9.79838 | 37065 ft | 474 kts | 218° |
| 2026-04-30 06:44 | 33.32755 | -9.84697 | 37066 ft | 476 kts | 218° |
| 2026-04-30 06:45 | 33.27517 | -9.89570 | 37064 ft | 477 kts | 218° |
| 2026-04-30 06:45 | 33.22286 | -9.94429 | 37063 ft | 475 kts | 218° |
| 2026-04-30 06:46 | 33.17067 | -9.99270 | 37064 ft | 475 kts | 218° |
| 2026-04-30 06:46 | 33.11846 | -10.04105 | 37063 ft | 475 kts | 218° |
| 2026-04-30 06:47 | 33.06654 | -10.08906 | 37063 ft | 475 kts | 218° |
| 2026-04-30 06:47 | 33.01396 | -10.13759 | 37064 ft | 475 kts | 218° |
| 2026-04-30 06:48 | 32.96192 | -10.18549 | 37063 ft | 476 kts | 218° |
| 2026-04-30 06:48 | 32.90936 | -10.23380 | 37069 ft | 478 kts | 218° |
| 2026-04-30 06:49 | 32.85664 | -10.28218 | 37072 ft | 479 kts | 218° |
| 2026-04-30 06:49 | 32.80389 | -10.33051 | 37070 ft | 478 kts | 218° |
| 2026-04-30 06:50 | 32.75115 | -10.37876 | 37071 ft | 478 kts | 218° |
| 2026-04-30 06:50 | 32.69849 | -10.42686 | 37058 ft | 477 kts | 218° |
| 2026-04-30 06:51 | 32.64595 | -10.47478 | 37055 ft | 476 kts | 218° |
| 2026-04-30 06:51 | 32.59342 | -10.52262 | 37054 ft | 477 kts | 218° |
| 2026-04-30 06:52 | 32.54089 | -10.57038 | 37059 ft | 479 kts | 218° |
| 2026-04-30 06:52 | 32.48795 | -10.61844 | 37068 ft | 480 kts | 218° |
| 2026-04-30 06:53 | 32.43494 | -10.66649 | 37053 ft | 479 kts | 218° |
| 2026-04-30 06:53 | 32.38209 | -10.71433 | 37054 ft | 477 kts | 218° |
| 2026-04-30 06:54 | 32.32933 | -10.76202 | 37059 ft | 478 kts | 218° |
| 2026-04-30 06:54 | 32.27638 | -10.80981 | 37062 ft | 479 kts | 218° |
| 2026-04-30 06:55 | 32.22350 | -10.85745 | 37064 ft | 480 kts | 218° |
| 2026-04-30 06:55 | 32.17045 | -10.90518 | 37070 ft | 479 kts | 218° |
| 2026-04-30 06:56 | 32.11748 | -10.95276 | 37070 ft | 478 kts | 218° |
| 2026-04-30 06:56 | 32.06428 | -11.00048 | 37072 ft | 480 kts | 218° |
| 2026-04-30 06:57 | 32.01110 | -11.04812 | 37070 ft | 480 kts | 218° |
| 2026-04-30 06:57 | 31.95784 | -11.09575 | 37071 ft | 480 kts | 218° |
| 2026-04-30 06:58 | 31.90460 | -11.14329 | 37073 ft | 481 kts | 218° |
| 2026-04-30 06:58 | 31.85131 | -11.19081 | 37062 ft | 481 kts | 218° |
| 2026-04-30 06:59 | 31.79829 | -11.23801 | 37062 ft | 480 kts | 218° |
| 2026-04-30 06:59 | 31.74508 | -11.28532 | 37060 ft | 479 kts | 218° |
| 2026-04-30 07:00 | 31.69202 | -11.33270 | 37068 ft | 479 kts | 218° |
| 2026-04-30 07:00 | 31.63876 | -11.38014 | 37068 ft | 481 kts | 218° |
| 2026-04-30 07:01 | 31.58529 | -11.42770 | 37070 ft | 481 kts | 218° |
| 2026-04-30 07:01 | 31.53187 | -11.47516 | 37062 ft | 481 kts | 218° |
| 2026-04-30 07:02 | 31.47849 | -11.52250 | 37061 ft | 480 kts | 218° |
| 2026-04-30 07:02 | 31.42530 | -11.56961 | 37059 ft | 480 kts | 218° |
| 2026-04-30 07:03 | 31.37205 | -11.61671 | 37067 ft | 479 kts | 218° |
| 2026-04-30 07:03 | 31.31927 | -11.66332 | 37065 ft | 478 kts | 218° |
| 2026-04-30 07:04 | 31.26609 | -11.71021 | 37066 ft | 480 kts | 218° |
| 2026-04-30 07:04 | 31.21261 | -11.75730 | 37077 ft | 482 kts | 218° |
| 2026-04-30 07:05 | 31.13219 | -11.82798 | 37085 ft | 482 kts | 218° |
| 2026-04-30 07:05 | 31.07866 | -11.87494 | 37084 ft | 481 kts | 218° |
| 2026-04-30 07:06 | 31.02520 | -11.92178 | 37081 ft | 480 kts | 218° |
| 2026-04-30 07:06 | 30.97185 | -11.96845 | 37078 ft | 479 kts | 218° |
| 2026-04-30 07:07 | 30.91889 | -12.01472 | 37078 ft | 479 kts | 218° |
| 2026-04-30 07:07 | 30.86537 | -12.06140 | 37077 ft | 482 kts | 219° |
| 2026-04-30 07:08 | 30.81143 | -12.10840 | 37083 ft | 486 kts | 218° |
| 2026-04-30 07:08 | 30.75732 | -12.15545 | 37086 ft | 484 kts | 218° |
| 2026-04-30 07:09 | 30.70341 | -12.20228 | 37090 ft | 483 kts | 218° |
| 2026-04-30 07:09 | 30.64962 | -12.24893 | 37077 ft | 482 kts | 219° |
| 2026-04-30 07:10 | 30.59567 | -12.29567 | 37087 ft | 484 kts | 219° |
| 2026-04-30 07:10 | 30.54149 | -12.34252 | 37082 ft | 486 kts | 219° |
| 2026-04-30 07:11 | 30.48772 | -12.38895 | 37083 ft | 484 kts | 218° |
| 2026-04-30 07:11 | 30.43368 | -12.43534 | 37082 ft | 485 kts | 219° |
| 2026-04-30 07:12 | 30.37927 | -12.48209 | 37089 ft | 487 kts | 219° |
| 2026-04-30 07:12 | 30.32474 | -12.52880 | 37085 ft | 487 kts | 219° |
| 2026-04-30 07:13 | 30.27019 | -12.57551 | 37088 ft | 487 kts | 219° |
| 2026-04-30 07:13 | 30.21579 | -12.62200 | 37086 ft | 486 kts | 219° |
| 2026-04-30 07:14 | 30.16142 | -12.66841 | 37086 ft | 486 kts | 219° |
| 2026-04-30 07:14 | 30.10707 | -12.71474 | 37087 ft | 485 kts | 219° |
| 2026-04-30 07:15 | 30.05313 | -12.76085 | 37082 ft | 486 kts | 219° |
| 2026-04-30 07:15 | 29.99859 | -12.80748 | 37078 ft | 490 kts | 220° |
| 2026-04-30 07:16 | 29.94356 | -12.85439 | 37085 ft | 492 kts | 220° |
| 2026-04-30 07:16 | 29.88862 | -12.90120 | 37086 ft | 491 kts | 220° |
| 2026-04-30 07:17 | 29.83370 | -12.94790 | 37082 ft | 490 kts | 220° |
| 2026-04-30 07:18 | 29.75151 | -13.01770 | 37066 ft | 489 kts | 220° |
| 2026-04-30 07:18 | 29.69654 | -13.06430 | 37088 ft | 492 kts | 220° |
| 2026-04-30 07:19 | 29.64167 | -13.11073 | 37087 ft | 493 kts | 220° |
| 2026-04-30 07:19 | 29.58631 | -13.15753 | 37080 ft | 495 kts | 221° |
| 2026-04-30 07:20 | 29.53037 | -13.20478 | 37087 ft | 501 kts | 221° |
| 2026-04-30 07:20 | 29.47407 | -13.25219 | 37088 ft | 501 kts | 221° |
| 2026-04-30 07:21 | 29.41796 | -13.29944 | 37092 ft | 500 kts | 221° |
| 2026-04-30 07:21 | 29.36172 | -13.34671 | 37097 ft | 501 kts | 221° |
| 2026-04-30 07:22 | 29.28672 | -13.40965 | 37100 ft | 503 kts | 221° |
| 2026-04-30 07:22 | 29.23028 | -13.45694 | 37096 ft | 502 kts | 221° |
| 2026-04-30 07:23 | 29.17392 | -13.50408 | 37075 ft | 502 kts | 221° |
| 2026-04-30 07:23 | 29.11471 | -13.54731 | 37073 ft | 511 kts | 218° |
| 2026-04-30 07:24 | 29.05436 | -13.59051 | 37074 ft | 512 kts | 218° |
| 2026-04-30 07:24 | 28.99373 | -13.63367 | 37078 ft | 513 kts | 218° |
| 2026-04-30 07:25 | 28.93321 | -13.67679 | 37076 ft | 512 kts | 218° |
| 2026-04-30 07:25 | 28.87272 | -13.71978 | 37080 ft | 512 kts | 218° |
| 2026-04-30 07:26 | 28.81207 | -13.76285 | 37084 ft | 513 kts | 218° |
| 2026-04-30 07:26 | 28.75131 | -13.80593 | 37085 ft | 514 kts | 218° |
| 2026-04-30 07:27 | 28.69064 | -13.84887 | 37078 ft | 512 kts | 218° |
| 2026-04-30 07:27 | 28.63044 | -13.89146 | 37073 ft | 516 kts | 219° |
| 2026-04-30 07:28 | 28.56914 | -13.93473 | 37092 ft | 518 kts | 219° |
| 2026-04-30 07:28 | 28.50783 | -13.97794 | 37082 ft | 517 kts | 219° |
| 2026-04-30 07:29 | 28.44681 | -14.02092 | 37076 ft | 516 kts | 219° |
| 2026-04-30 07:29 | 28.38571 | -14.06388 | 37088 ft | 517 kts | 219° |
| 2026-04-30 07:30 | 28.29390 | -14.12832 | 37084 ft | 517 kts | 219° |
| 2026-04-30 07:31 | 28.23310 | -14.17092 | 37085 ft | 517 kts | 219° |
| 2026-04-30 07:31 | 28.17201 | -14.21366 | 37080 ft | 515 kts | 220° |
| 2026-04-30 07:32 | 28.11098 | -14.25634 | 37089 ft | 516 kts | 220° |
| 2026-04-30 07:32 | 28.04977 | -14.29903 | 37087 ft | 516 kts | 220° |
| 2026-04-30 07:33 | 27.98861 | -14.34167 | 37087 ft | 516 kts | 220° |
| 2026-04-30 07:33 | 27.92740 | -14.38427 | 37086 ft | 516 kts | 220° |
| 2026-04-30 07:34 | 27.86623 | -14.42677 | 37078 ft | 513 kts | 220° |
| 2026-04-30 07:34 | 27.80559 | -14.46889 | 37073 ft | 512 kts | 220° |
| 2026-04-30 07:35 | 27.74518 | -14.51076 | 37083 ft | 512 kts | 220° |
| 2026-04-30 07:35 | 27.68440 | -14.55284 | 37085 ft | 512 kts | 220° |
| 2026-04-30 07:36 | 27.62353 | -14.59491 | 37072 ft | 513 kts | 220° |
| 2026-04-30 07:36 | 27.56264 | -14.63695 | 37079 ft | 511 kts | 220° |
| 2026-04-30 07:37 | 27.50255 | -14.67839 | 37083 ft | 509 kts | 220° |
| 2026-04-30 07:37 | 27.44213 | -14.72002 | 37081 ft | 510 kts | 220° |
| 2026-04-30 07:38 | 27.38153 | -14.76168 | 37083 ft | 510 kts | 220° |
| 2026-04-30 07:38 | 27.32086 | -14.80337 | 37080 ft | 511 kts | 220° |
| 2026-04-30 07:39 | 27.26008 | -14.84505 | 37054 ft | 511 kts | 220° |
| 2026-04-30 07:39 | 27.19989 | -14.88625 | 37079 ft | 503 kts | 220° |
| 2026-04-30 07:40 | 27.13999 | -14.92731 | 37076 ft | 505 kts | 220° |
| 2026-04-30 07:40 | 27.08003 | -14.96823 | 37090 ft | 504 kts | 219° |
| 2026-04-30 07:41 | 27.02012 | -15.00915 | 37086 ft | 504 kts | 219° |
| 2026-04-30 07:41 | 26.96012 | -15.05003 | 37090 ft | 504 kts | 219° |
| 2026-04-30 07:42 | 26.90044 | -15.09067 | 37092 ft | 505 kts | 219° |
| 2026-04-30 07:42 | 26.84041 | -15.13148 | 37094 ft | 505 kts | 219° |
| 2026-04-30 07:43 | 26.78033 | -15.17228 | 37094 ft | 505 kts | 219° |
| 2026-04-30 07:43 | 26.72025 | -15.21302 | 37093 ft | 505 kts | 219° |
| 2026-04-30 07:44 | 26.66016 | -15.25373 | 37091 ft | 505 kts | 219° |
| 2026-04-30 07:44 | 26.60013 | -15.29430 | 37078 ft | 500 kts | 219° |
| 2026-04-30 07:45 | 26.54080 | -15.33443 | 37076 ft | 499 kts | 219° |
| 2026-04-30 07:45 | 26.48135 | -15.37453 | 37078 ft | 499 kts | 219° |
| 2026-04-30 07:46 | 26.42179 | -15.41467 | 37076 ft | 500 kts | 219° |
| 2026-04-30 07:46 | 26.36266 | -15.45448 | 37077 ft | 500 kts | 219° |
| 2026-04-30 07:47 | 26.30311 | -15.49451 | 37090 ft | 497 kts | 219° |
| 2026-04-30 07:47 | 26.24403 | -15.53417 | 37084 ft | 495 kts | 219° |
| 2026-04-30 07:48 | 26.18508 | -15.57374 | 37081 ft | 496 kts | 219° |
| 2026-04-30 07:48 | 26.12583 | -15.61341 | 37085 ft | 497 kts | 219° |
| 2026-04-30 07:49 | 26.06645 | -15.65316 | 37089 ft | 497 kts | 219° |
| 2026-04-30 07:49 | 26.00765 | -15.69243 | 37087 ft | 495 kts | 219° |
| 2026-04-30 07:50 | 25.94888 | -15.73166 | 37077 ft | 491 kts | 219° |
| 2026-04-30 07:50 | 25.89019 | -15.77082 | 37078 ft | 493 kts | 219° |
| 2026-04-30 07:51 | 25.83132 | -15.81001 | 37079 ft | 494 kts | 219° |
| 2026-04-30 07:51 | 25.77227 | -15.84929 | 37086 ft | 494 kts | 218° |
| 2026-04-30 07:52 | 25.71336 | -15.88841 | 37080 ft | 493 kts | 219° |
| 2026-04-30 07:52 | 25.65470 | -15.92734 | 37090 ft | 489 kts | 218° |
| 2026-04-30 07:53 | 25.59621 | -15.96613 | 37091 ft | 490 kts | 218° |
| 2026-04-30 07:53 | 25.53761 | -16.00493 | 37084 ft | 491 kts | 218° |
| 2026-04-30 07:54 | 25.47885 | -16.04378 | 37090 ft | 492 kts | 218° |
| 2026-04-30 07:54 | 25.42031 | -16.08245 | 37095 ft | 492 kts | 218° |
| 2026-04-30 07:55 | 25.36154 | -16.12122 | 37092 ft | 491 kts | 218° |
| 2026-04-30 07:55 | 25.30298 | -16.15981 | 37088 ft | 488 kts | 218° |
| 2026-04-30 07:56 | 25.24451 | -16.19831 | 37091 ft | 489 kts | 218° |
| 2026-04-30 07:56 | 25.18606 | -16.23674 | 37093 ft | 490 kts | 218° |
| 2026-04-30 07:57 | 25.12773 | -16.27506 | 37092 ft | 490 kts | 218° |
| 2026-04-30 07:57 | 25.06914 | -16.31349 | 37094 ft | 490 kts | 218° |
| 2026-04-30 07:58 | 25.01058 | -16.35186 | 37081 ft | 488 kts | 218° |
| 2026-04-30 07:58 | 24.95223 | -16.39007 | 37102 ft | 488 kts | 218° |
| 2026-04-30 07:59 | 24.89375 | -16.42829 | 37104 ft | 488 kts | 218° |
| 2026-04-30 07:59 | 24.83532 | -16.46645 | 37104 ft | 488 kts | 218° |
| 2026-04-30 08:00 | 24.74759 | -16.52366 | 37104 ft | 488 kts | 218° |
| 2026-04-30 08:00 | 24.68953 | -16.56146 | 37096 ft | 487 kts | 218° |
| 2026-04-30 08:01 | 24.63126 | -16.59938 | 37094 ft | 486 kts | 218° |
| 2026-04-30 08:01 | 24.57306 | -16.63720 | 37094 ft | 486 kts | 218° |
| 2026-04-30 08:02 | 24.48559 | -16.69395 | 37093 ft | 487 kts | 218° |
| 2026-04-30 08:03 | 24.36875 | -16.76963 | 37085 ft | 487 kts | 217° |
| 2026-04-30 08:04 | 24.31033 | -16.80740 | 37092 ft | 487 kts | 217° |
| 2026-04-30 08:04 | 24.25189 | -16.84515 | 37092 ft | 487 kts | 217° |
| 2026-04-30 08:05 | 24.19385 | -16.88261 | 37089 ft | 487 kts | 217° |
| 2026-04-30 08:05 | 24.13555 | -16.92018 | 37088 ft | 487 kts | 217° |
| 2026-04-30 08:06 | 24.07713 | -16.95780 | 37091 ft | 487 kts | 217° |
| 2026-04-30 08:06 | 24.01867 | -16.99539 | 37094 ft | 486 kts | 217° |
| 2026-04-30 08:07 | 23.96041 | -17.03284 | 37093 ft | 487 kts | 217° |
| 2026-04-30 08:07 | 23.90181 | -17.07044 | 37095 ft | 489 kts | 217° |
| 2026-04-30 08:08 | 23.84308 | -17.10808 | 37097 ft | 489 kts | 217° |
| 2026-04-30 08:08 | 23.78448 | -17.14562 | 37094 ft | 487 kts | 217° |
| 2026-04-30 08:09 | 23.72657 | -17.18267 | 37088 ft | 486 kts | 217° |
| 2026-04-30 08:09 | 23.66822 | -17.21996 | 37091 ft | 487 kts | 217° |
| 2026-04-30 08:10 | 23.60960 | -17.25739 | 37093 ft | 488 kts | 217° |
| 2026-04-30 08:10 | 23.55099 | -17.29477 | 37097 ft | 489 kts | 217° |
| 2026-04-30 08:11 | 23.49213 | -17.33226 | 37104 ft | 489 kts | 217° |
| 2026-04-30 08:11 | 23.44327 | -17.36335 | 37108 ft | 488 kts | 217° |
| 2026-04-30 08:12 | 23.38485 | -17.40051 | 37074 ft | 486 kts | 217° |
| 2026-04-30 08:12 | 23.32629 | -17.43772 | 37091 ft | 488 kts | 217° |
| 2026-04-30 08:13 | 23.26756 | -17.47497 | 37095 ft | 489 kts | 217° |
| 2026-04-30 08:13 | 23.20874 | -17.51227 | 37098 ft | 489 kts | 217° |
| 2026-04-30 08:14 | 23.15024 | -17.54931 | 37096 ft | 489 kts | 217° |
| 2026-04-30 08:14 | 23.09144 | -17.58651 | 37094 ft | 489 kts | 217° |
| 2026-04-30 08:15 | 23.03263 | -17.62367 | 37100 ft | 488 kts | 217° |
| 2026-04-30 08:15 | 22.97386 | -17.66078 | 37099 ft | 489 kts | 217° |
| 2026-04-30 08:16 | 22.91490 | -17.69796 | 37102 ft | 489 kts | 217° |
| 2026-04-30 08:16 | 22.85607 | -17.73503 | 37105 ft | 489 kts | 217° |
| 2026-04-30 08:17 | 22.79746 | -17.77192 | 37100 ft | 490 kts | 217° |
| 2026-04-30 08:17 | 22.73834 | -17.80909 | 37101 ft | 492 kts | 217° |
| 2026-04-30 08:18 | 22.67909 | -17.84631 | 37092 ft | 492 kts | 218° |
| 2026-04-30 08:18 | 22.61981 | -17.88351 | 37090 ft | 492 kts | 218° |
| 2026-04-30 08:19 | 22.56062 | -17.92060 | 37085 ft | 490 kts | 218° |
| 2026-04-30 08:19 | 22.50163 | -17.95756 | 37083 ft | 489 kts | 218° |
| 2026-04-30 08:20 | 22.44268 | -17.99444 | 37088 ft | 490 kts | 217° |
| 2026-04-30 08:20 | 22.38385 | -18.03120 | 37077 ft | 492 kts | 218° |
| 2026-04-30 08:21 | 22.32447 | -18.06829 | 37090 ft | 493 kts | 218° |
| 2026-04-30 08:21 | 22.26523 | -18.10522 | 37085 ft | 491 kts | 218° |
| 2026-04-30 08:22 | 22.20604 | -18.14212 | 37089 ft | 491 kts | 218° |
| 2026-04-30 08:22 | 22.14673 | -18.17904 | 37089 ft | 492 kts | 218° |
| 2026-04-30 08:23 | 22.08739 | -18.21595 | 37091 ft | 492 kts | 218° |
| 2026-04-30 08:23 | 22.02797 | -18.25286 | 37080 ft | 492 kts | 218° |
| 2026-04-30 08:24 | 21.96862 | -18.28971 | 37101 ft | 492 kts | 218° |
| 2026-04-30 08:24 | 21.90970 | -18.32623 | 37101 ft | 491 kts | 218° |
| 2026-04-30 08:25 | 21.85042 | -18.36296 | 37099 ft | 491 kts | 218° |
| 2026-04-30 08:25 | 21.79127 | -18.39957 | 37097 ft | 490 kts | 218° |
| 2026-04-30 08:26 | 21.73211 | -18.43615 | 37097 ft | 490 kts | 218° |
| 2026-04-30 08:26 | 21.67303 | -18.47264 | 37092 ft | 490 kts | 218° |
| 2026-04-30 08:27 | 21.61375 | -18.50923 | 37092 ft | 491 kts | 218° |
| 2026-04-30 08:27 | 21.55444 | -18.54579 | 37097 ft | 491 kts | 218° |
| 2026-04-30 08:28 | 21.49511 | -18.58234 | 37099 ft | 492 kts | 218° |
| 2026-04-30 08:28 | 21.43601 | -18.61871 | 37103 ft | 492 kts | 218° |
| 2026-04-30 08:29 | 21.37659 | -18.65524 | 37073 ft | 492 kts | 218° |
| 2026-04-30 08:29 | 21.31716 | -18.69175 | 37090 ft | 493 kts | 218° |
| 2026-04-30 08:30 | 21.25758 | -18.72829 | 37093 ft | 493 kts | 218° |
| 2026-04-30 08:30 | 21.19808 | -18.76476 | 37091 ft | 491 kts | 218° |
| 2026-04-30 08:31 | 21.13878 | -18.80108 | 37094 ft | 490 kts | 218° |
| 2026-04-30 08:31 | 21.07994 | -18.83708 | 37088 ft | 491 kts | 218° |
| 2026-04-30 08:32 | 21.02055 | -18.87338 | 37094 ft | 492 kts | 218° |
| 2026-04-30 08:32 | 20.96089 | -18.90982 | 37104 ft | 494 kts | 218° |
| 2026-04-30 08:33 | 20.90121 | -18.94622 | 37101 ft | 494 kts | 218° |
| 2026-04-30 08:33 | 20.84154 | -18.98260 | 37102 ft | 494 kts | 218° |
| 2026-04-30 08:34 | 20.78181 | -19.01897 | 37100 ft | 494 kts | 218° |
| 2026-04-30 08:34 | 20.72247 | -19.05508 | 37105 ft | 494 kts | 218° |
| 2026-04-30 08:35 | 20.66271 | -19.09141 | 37091 ft | 495 kts | 218° |
| 2026-04-30 08:35 | 20.60287 | -19.12775 | 37086 ft | 496 kts | 218° |
| 2026-04-30 08:36 | 20.54280 | -19.16421 | 37091 ft | 497 kts | 218° |
| 2026-04-30 08:36 | 20.48260 | -19.20069 | 37091 ft | 497 kts | 218° |
| 2026-04-30 08:37 | 20.42247 | -19.23711 | 37092 ft | 496 kts | 218° |
| 2026-04-30 08:37 | 20.36246 | -19.27342 | 37090 ft | 496 kts | 218° |
| 2026-04-30 08:38 | 20.30248 | -19.30969 | 37087 ft | 496 kts | 218° |
| 2026-04-30 08:38 | 20.24282 | -19.34572 | 37085 ft | 495 kts | 218° |
| 2026-04-30 08:39 | 20.18283 | -19.38193 | 37087 ft | 495 kts | 218° |
| 2026-04-30 08:39 | 20.12292 | -19.41805 | 37086 ft | 495 kts | 218° |
| 2026-04-30 08:40 | 20.06296 | -19.45417 | 37087 ft | 494 kts | 218° |
| 2026-04-30 08:40 | 20.00304 | -19.49025 | 37088 ft | 497 kts | 217° |
| 2026-04-30 08:41 | 19.94264 | -19.52656 | 37105 ft | 499 kts | 217° |
| 2026-04-30 08:41 | 19.88217 | -19.56289 | 37098 ft | 499 kts | 217° |
| 2026-04-30 08:42 | 19.82174 | -19.59917 | 37100 ft | 499 kts | 217° |
| 2026-04-30 08:42 | 19.76161 | -19.63523 | 37101 ft | 498 kts | 217° |
| 2026-04-30 08:43 | 19.70118 | -19.67144 | 37094 ft | 498 kts | 217° |
| 2026-04-30 08:43 | 19.64093 | -19.70751 | 37086 ft | 497 kts | 217° |
| 2026-04-30 08:44 | 19.58480 | -19.74843 | 37104 ft | 483 kts | 230° |
| 2026-04-30 08:44 | 19.53895 | -19.79970 | 37094 ft | 478 kts | 234° |
| 2026-04-30 08:45 | 19.49421 | -19.85121 | 37100 ft | 478 kts | 234° |
| 2026-04-30 08:45 | 19.44921 | -19.90310 | 37102 ft | 478 kts | 234° |
| 2026-04-30 08:46 | 19.40414 | -19.95494 | 37096 ft | 478 kts | 234° |
| 2026-04-30 08:46 | 19.35902 | -20.00683 | 37096 ft | 478 kts | 234° |
| 2026-04-30 08:47 | 19.31397 | -20.05858 | 37085 ft | 477 kts | 233° |
| 2026-04-30 08:47 | 19.26888 | -20.11034 | 37089 ft | 479 kts | 233° |
| 2026-04-30 08:48 | 19.22384 | -20.16199 | 37090 ft | 481 kts | 233° |
| 2026-04-30 08:48 | 19.17825 | -20.21422 | 37091 ft | 479 kts | 233° |
| 2026-04-30 08:49 | 19.13336 | -20.26562 | 37083 ft | 478 kts | 233° |
| 2026-04-30 08:49 | 19.08823 | -20.31723 | 37082 ft | 477 kts | 233° |
| 2026-04-30 08:50 | 19.04306 | -20.36886 | 37083 ft | 478 kts | 233° |
| 2026-04-30 08:50 | 18.99771 | -20.42065 | 37086 ft | 480 kts | 233° |
| 2026-04-30 08:51 | 18.95255 | -20.47217 | 37086 ft | 481 kts | 233° |
| 2026-04-30 08:51 | 18.90694 | -20.52416 | 37095 ft | 483 kts | 233° |
| 2026-04-30 08:52 | 18.86135 | -20.57606 | 37089 ft | 481 kts | 233° |
| 2026-04-30 08:52 | 18.81594 | -20.62775 | 37086 ft | 479 kts | 233° |
| 2026-04-30 08:53 | 18.77050 | -20.67941 | 37087 ft | 481 kts | 233° |
| 2026-04-30 08:53 | 18.72486 | -20.73126 | 37085 ft | 483 kts | 233° |
| 2026-04-30 08:54 | 18.67905 | -20.78325 | 37089 ft | 483 kts | 232° |
| 2026-04-30 08:54 | 18.63334 | -20.83508 | 37084 ft | 482 kts | 232° |
| 2026-04-30 08:55 | 18.58755 | -20.88697 | 37061 ft | 483 kts | 232° |
| 2026-04-30 08:55 | 18.54162 | -20.93898 | 37083 ft | 485 kts | 232° |
| 2026-04-30 08:56 | 18.49590 | -20.99068 | 37081 ft | 484 kts | 232° |
| 2026-04-30 08:56 | 18.44997 | -21.04260 | 37082 ft | 484 kts | 232° |
| 2026-04-30 08:57 | 18.40399 | -21.09451 | 37081 ft | 484 kts | 232° |
| 2026-04-30 08:57 | 18.35812 | -21.14627 | 37075 ft | 483 kts | 232° |
| 2026-04-30 08:58 | 18.31251 | -21.19768 | 37084 ft | 483 kts | 232° |
| 2026-04-30 08:58 | 18.26661 | -21.24940 | 37084 ft | 483 kts | 232° |
| 2026-04-30 08:59 | 18.22076 | -21.30100 | 37063 ft | 483 kts | 232° |
| 2026-04-30 08:59 | 18.17475 | -21.35275 | 37094 ft | 486 kts | 231° |
| 2026-04-30 09:00 | 18.13628 | -21.39597 | 37095 ft | 486 kts | 231° |
| 2026-04-30 09:00 | 18.08247 | -21.45639 | 37100 ft | 487 kts | 231° |
| 2026-04-30 09:01 | 18.04369 | -21.49989 | 37099 ft | 487 kts | 231° |
| 2026-04-30 09:01 | 17.99757 | -21.55160 | 37099 ft | 487 kts | 231° |
| 2026-04-30 09:02 | 17.92796 | -21.62955 | 37097 ft | 487 kts | 231° |
| 2026-04-30 09:02 | 17.88174 | -21.68125 | 37093 ft | 485 kts | 231° |
| 2026-04-30 09:03 | 17.83561 | -21.73282 | 37085 ft | 485 kts | 231° |
| 2026-04-30 09:03 | 17.78920 | -21.78466 | 37086 ft | 488 kts | 231° |
| 2026-04-30 09:04 | 17.74267 | -21.83657 | 37088 ft | 488 kts | 231° |
| 2026-04-30 09:04 | 17.69604 | -21.88857 | 37087 ft | 488 kts | 231° |
| 2026-04-30 09:05 | 17.64948 | -21.94045 | 37089 ft | 488 kts | 231° |
| 2026-04-30 09:05 | 17.60292 | -21.99237 | 37089 ft | 488 kts | 231° |
| 2026-04-30 09:06 | 17.55643 | -22.04419 | 37090 ft | 488 kts | 231° |
| 2026-04-30 09:06 | 17.50983 | -22.09606 | 37089 ft | 488 kts | 231° |
| 2026-04-30 09:07 | 17.46358 | -22.14753 | 37087 ft | 488 kts | 231° |
| 2026-04-30 09:07 | 17.41686 | -22.19946 | 37088 ft | 490 kts | 231° |
| 2026-04-30 09:08 | 17.37007 | -22.25144 | 37084 ft | 489 kts | 231° |
| 2026-04-30 09:08 | 17.32348 | -22.30315 | 37081 ft | 488 kts | 231° |
| 2026-04-30 09:09 | 17.27693 | -22.35477 | 37084 ft | 487 kts | 231° |
| 2026-04-30 09:09 | 17.23073 | -22.40598 | 37080 ft | 488 kts | 231° |
| 2026-04-30 09:10 | 17.18400 | -22.45772 | 37080 ft | 489 kts | 230° |
| 2026-04-30 09:10 | 17.13714 | -22.50956 | 37084 ft | 491 kts | 230° |
| 2026-04-30 09:11 | 17.09025 | -22.56140 | 37074 ft | 490 kts | 230° |
| 2026-04-30 09:11 | 17.04336 | -22.61321 | 37081 ft | 491 kts | 230° |
| 2026-04-30 09:12 | 16.99633 | -22.66511 | 37084 ft | 491 kts | 230° |
| 2026-04-30 09:12 | 16.94935 | -22.71693 | 37082 ft | 490 kts | 230° |
| 2026-04-30 09:13 | 16.90252 | -22.76855 | 37070 ft | 488 kts | 230° |
| 2026-04-30 09:13 | 16.85599 | -22.81980 | 37071 ft | 490 kts | 230° |
| 2026-04-30 09:14 | 16.80900 | -22.87150 | 37074 ft | 492 kts | 230° |
| 2026-04-30 09:14 | 16.76187 | -22.92325 | 37077 ft | 491 kts | 229° |
| 2026-04-30 09:15 | 16.70631 | -22.96593 | 37097 ft | 503 kts | 211° |
| 2026-04-30 09:15 | 16.64301 | -22.99770 | 37086 ft | 505 kts | 210° |
| 2026-04-30 09:16 | 16.57965 | -23.02910 | 37081 ft | 503 kts | 210° |
| 2026-04-30 09:16 | 16.51657 | -23.06050 | 37077 ft | 502 kts | 210° |
| 2026-04-30 09:17 | 16.45344 | -23.09182 | 37075 ft | 503 kts | 210° |
| 2026-04-30 09:17 | 16.39049 | -23.12308 | 37056 ft | 504 kts | 210° |
| 2026-04-30 09:18 | 16.32686 | -23.15462 | 37063 ft | 506 kts | 210° |
| 2026-04-30 09:18 | 16.26335 | -23.18608 | 37064 ft | 505 kts | 210° |
| 2026-04-30 09:19 | 16.20004 | -23.21743 | 37064 ft | 504 kts | 210° |
| 2026-04-30 09:19 | 16.13666 | -23.24878 | 37062 ft | 503 kts | 210° |
| 2026-04-30 09:20 | 16.07343 | -23.28005 | 37067 ft | 503 kts | 210° |
| 2026-04-30 09:20 | 16.01049 | -23.31115 | 37072 ft | 505 kts | 210° |
| 2026-04-30 09:21 | 15.94694 | -23.34252 | 37074 ft | 506 kts | 210° |
| 2026-04-30 09:21 | 15.88321 | -23.37396 | 37076 ft | 506 kts | 210° |
| 2026-04-30 09:22 | 15.81964 | -23.40530 | 37069 ft | 504 kts | 210° |
| 2026-04-30 09:22 | 15.75633 | -23.43649 | 37065 ft | 503 kts | 209° |
| 2026-04-30 09:23 | 15.69350 | -23.46743 | 37067 ft | 503 kts | 209° |
| 2026-04-30 09:23 | 15.62998 | -23.49869 | 37068 ft | 506 kts | 209° |
| 2026-04-30 09:24 | 15.56614 | -23.53006 | 37069 ft | 506 kts | 209° |
| 2026-04-30 09:24 | 15.50264 | -23.56127 | 37068 ft | 504 kts | 209° |
| 2026-04-30 09:25 | 15.43933 | -23.59235 | 37065 ft | 503 kts | 209° |
| 2026-04-30 09:25 | 15.37636 | -23.62325 | 37059 ft | 504 kts | 209° |
| 2026-04-30 09:26 | 15.31283 | -23.65440 | 37053 ft | 504 kts | 209° |
| 2026-04-30 09:26 | 15.24939 | -23.68548 | 37064 ft | 504 kts | 209° |
| 2026-04-30 09:27 | 15.18633 | -23.71636 | 37064 ft | 504 kts | 209° |
| 2026-04-30 09:27 | 15.12290 | -23.74740 | 37064 ft | 504 kts | 209° |
| 2026-04-30 09:28 | 15.05928 | -23.77851 | 37067 ft | 506 kts | 209° |
| 2026-04-30 09:28 | 14.99569 | -23.80959 | 37053 ft | 505 kts | 208° |
| 2026-04-30 09:29 | 14.93206 | -23.84066 | 37059 ft | 506 kts | 208° |
| 2026-04-30 09:29 | 14.86826 | -23.87180 | 37057 ft | 507 kts | 208° |
| 2026-04-30 09:30 | 14.80437 | -23.90296 | 37054 ft | 507 kts | 208° |
| 2026-04-30 09:30 | 14.74102 | -23.93383 | 37062 ft | 505 kts | 208° |
| 2026-04-30 09:31 | 14.67757 | -23.96474 | 37041 ft | 504 kts | 208° |
| 2026-04-30 09:31 | 14.61391 | -23.99573 | 37060 ft | 506 kts | 208° |
| 2026-04-30 09:32 | 14.55026 | -24.02668 | 37059 ft | 506 kts | 208° |
| 2026-04-30 09:32 | 14.48649 | -24.05769 | 37061 ft | 506 kts | 208° |
| 2026-04-30 09:33 | 14.42274 | -24.08866 | 37061 ft | 506 kts | 208° |
| 2026-04-30 09:33 | 14.35936 | -24.11944 | 37062 ft | 506 kts | 208° |
| 2026-04-30 09:34 | 14.29569 | -24.15033 | 37054 ft | 506 kts | 208° |
| 2026-04-30 09:34 | 14.23196 | -24.18123 | 37054 ft | 506 kts | 208° |
| 2026-04-30 09:35 | 14.16819 | -24.21214 | 37056 ft | 505 kts | 208° |
| 2026-04-30 09:35 | 14.10455 | -24.24296 | 37053 ft | 505 kts | 208° |
| 2026-04-30 09:36 | 14.04135 | -24.27355 | 37054 ft | 505 kts | 208° |
| 2026-04-30 09:36 | 13.97739 | -24.30449 | 37049 ft | 504 kts | 208° |
| 2026-04-30 09:37 | 13.91406 | -24.33511 | 37053 ft | 507 kts | 208° |
| 2026-04-30 09:37 | 13.85012 | -24.36599 | 37059 ft | 507 kts | 208° |
| 2026-04-30 09:38 | 13.78613 | -24.39689 | 37056 ft | 508 kts | 208° |
| 2026-04-30 09:38 | 13.72201 | -24.42783 | 37055 ft | 509 kts | 208° |
| 2026-04-30 09:39 | 13.65790 | -24.45867 | 37057 ft | 509 kts | 207° |
| 2026-04-30 09:39 | 13.59348 | -24.48932 | 37055 ft | 510 kts | 207° |
| 2026-04-30 09:40 | 13.52919 | -24.52007 | 37051 ft | 509 kts | 207° |
| 2026-04-30 09:40 | 13.46551 | -24.55042 | 37052 ft | 507 kts | 207° |
| 2026-04-30 09:41 | 13.40142 | -24.58100 | 37049 ft | 508 kts | 207° |
| 2026-04-30 09:41 | 13.33716 | -24.61161 | 37054 ft | 509 kts | 207° |
| 2026-04-30 09:42 | 13.27284 | -24.64225 | 37049 ft | 510 kts | 207° |
| 2026-04-30 09:42 | 13.20852 | -24.67285 | 37049 ft | 509 kts | 207° |
| 2026-04-30 09:43 | 13.14485 | -24.70315 | 37047 ft | 508 kts | 207° |
| 2026-04-30 09:43 | 13.08077 | -24.73361 | 37047 ft | 507 kts | 207° |
| 2026-04-30 09:44 | 13.01667 | -24.76406 | 37053 ft | 507 kts | 207° |
| 2026-04-30 09:44 | 12.95242 | -24.79458 | 37054 ft | 509 kts | 207° |
| 2026-04-30 09:45 | 12.88811 | -24.82509 | 37048 ft | 510 kts | 207° |
| 2026-04-30 09:45 | 12.82364 | -24.85567 | 37048 ft | 510 kts | 207° |
| 2026-04-30 09:46 | 12.75969 | -24.88599 | 37047 ft | 509 kts | 207° |
| 2026-04-30 09:46 | 12.69515 | -24.91657 | 37043 ft | 509 kts | 207° |
| 2026-04-30 09:47 | 12.63087 | -24.94701 | 37043 ft | 509 kts | 207° |
| 2026-04-30 09:47 | 12.56692 | -24.97727 | 37047 ft | 509 kts | 207° |
| 2026-04-30 09:48 | 12.51329 | -25.00264 | 37046 ft | 511 kts | 207° |
| 2026-04-30 09:48 | 12.44853 | -25.03326 | 37051 ft | 511 kts | 207° |
| 2026-04-30 09:49 | 12.38403 | -25.06373 | 37047 ft | 510 kts | 207° |
| 2026-04-30 09:49 | 12.31969 | -25.09412 | 37044 ft | 508 kts | 207° |
| 2026-04-30 09:50 | 12.25553 | -25.12440 | 37036 ft | 508 kts | 207° |
| 2026-04-30 09:50 | 12.19169 | -25.15452 | 37044 ft | 507 kts | 207° |
| 2026-04-30 09:51 | 12.12747 | -25.18480 | 37043 ft | 507 kts | 207° |
| 2026-04-30 09:51 | 12.06324 | -25.21507 | 37044 ft | 509 kts | 207° |
| 2026-04-30 09:52 | 11.99880 | -25.24542 | 37045 ft | 511 kts | 207° |
| 2026-04-30 09:52 | 11.93467 | -25.27560 | 37047 ft | 510 kts | 207° |
| 2026-04-30 09:53 | 11.87048 | -25.30581 | 37039 ft | 506 kts | 207° |
| 2026-04-30 09:53 | 11.80637 | -25.33596 | 37039 ft | 506 kts | 207° |
| 2026-04-30 09:54 | 11.74241 | -25.36602 | 37039 ft | 507 kts | 207° |
| 2026-04-30 09:54 | 11.67827 | -25.39615 | 37036 ft | 507 kts | 207° |
| 2026-04-30 09:55 | 11.61409 | -25.42628 | 37040 ft | 507 kts | 207° |
| 2026-04-30 09:55 | 11.54991 | -25.45641 | 37047 ft | 507 kts | 207° |
| 2026-04-30 09:56 | 11.48600 | -25.48638 | 37046 ft | 505 kts | 207° |
| 2026-04-30 09:56 | 11.42209 | -25.51635 | 37040 ft | 505 kts | 207° |
| 2026-04-30 09:57 | 11.35854 | -25.54612 | 37043 ft | 506 kts | 207° |
| 2026-04-30 09:57 | 11.29464 | -25.57605 | 37039 ft | 506 kts | 207° |
| 2026-04-30 09:58 | 11.23066 | -25.60600 | 37046 ft | 506 kts | 207° |
| 2026-04-30 09:58 | 11.16670 | -25.63592 | 37038 ft | 503 kts | 206° |
| 2026-04-30 09:59 | 11.03946 | -25.69542 | 37042 ft | 504 kts | 206° |
| 2026-04-30 10:00 | 10.94369 | -25.74016 | 37041 ft | 504 kts | 206° |
| 2026-04-30 10:01 | 10.84848 | -25.78460 | 37034 ft | 504 kts | 206° |
| 2026-04-30 10:02 | 10.75276 | -25.82926 | 37050 ft | 505 kts | 206° |
| 2026-04-30 10:02 | 10.68884 | -25.85906 | 37046 ft | 505 kts | 206° |
| 2026-04-30 10:03 | 10.62492 | -25.88885 | 37050 ft | 505 kts | 206° |
| 2026-04-30 10:03 | 10.56095 | -25.91864 | 37051 ft | 506 kts | 206° |
| 2026-04-30 10:04 | 10.49742 | -25.94823 | 37044 ft | 504 kts | 206° |
| 2026-04-30 10:04 | 10.43367 | -25.97789 | 37042 ft | 504 kts | 206° |
| 2026-04-30 10:05 | 10.36994 | -26.00753 | 37039 ft | 504 kts | 206° |
| 2026-04-30 10:05 | 10.30613 | -26.03720 | 37039 ft | 504 kts | 206° |
| 2026-04-30 10:06 | 10.24237 | -26.06683 | 37041 ft | 504 kts | 206° |
| 2026-04-30 10:06 | 10.17845 | -26.09653 | 37044 ft | 505 kts | 206° |
| 2026-04-30 10:07 | 10.11442 | -26.12626 | 37038 ft | 506 kts | 206° |
| 2026-04-30 10:07 | 10.05092 | -26.15573 | 37035 ft | 504 kts | 206° |
| 2026-04-30 10:08 | 9.98720 | -26.18529 | 37033 ft | 503 kts | 206° |
| 2026-04-30 10:08 | 9.92361 | -26.21478 | 37032 ft | 503 kts | 206° |
| 2026-04-30 10:09 | 9.85974 | -26.24439 | 37035 ft | 505 kts | 206° |
| 2026-04-30 10:09 | 9.79562 | -26.27410 | 37040 ft | 506 kts | 206° |
| 2026-04-30 10:10 | 9.73161 | -26.30374 | 37041 ft | 504 kts | 206° |
| 2026-04-30 10:10 | 9.66814 | -26.33312 | 37040 ft | 503 kts | 206° |
| 2026-04-30 10:11 | 9.60436 | -26.36263 | 37036 ft | 503 kts | 206° |
| 2026-04-30 10:11 | 9.54081 | -26.39203 | 37032 ft | 503 kts | 206° |
| 2026-04-30 10:12 | 9.47695 | -26.42156 | 37031 ft | 505 kts | 206° |
| 2026-04-30 10:12 | 9.41295 | -26.45114 | 37034 ft | 506 kts | 206° |
| 2026-04-30 10:13 | 9.34930 | -26.48054 | 37034 ft | 505 kts | 206° |
| 2026-04-30 10:13 | 9.28531 | -26.51009 | 37034 ft | 504 kts | 206° |
| 2026-04-30 10:14 | 9.22160 | -26.53950 | 37031 ft | 503 kts | 206° |
| 2026-04-30 10:14 | 9.12611 | -26.58356 | 37023 ft | 503 kts | 206° |
| 2026-04-30 10:15 | 9.06237 | -26.61295 | 37021 ft | 503 kts | 206° |
| 2026-04-30 10:15 | 8.99900 | -26.64217 | 37021 ft | 503 kts | 205° |
| 2026-04-30 10:16 | 8.93527 | -26.67153 | 37018 ft | 503 kts | 205° |
| 2026-04-30 10:17 | 8.83968 | -26.71555 | 37018 ft | 504 kts | 205° |
| 2026-04-30 10:17 | 8.74390 | -26.75964 | 37014 ft | 504 kts | 205° |
| 2026-04-30 10:18 | 8.68008 | -26.78901 | 37014 ft | 504 kts | 205° |
| 2026-04-30 10:19 | 8.58425 | -26.83307 | 37015 ft | 504 kts | 205° |
| 2026-04-30 10:19 | 8.52069 | -26.86229 | 37013 ft | 504 kts | 205° |
| 2026-04-30 10:20 | 8.45684 | -26.89160 | 37018 ft | 504 kts | 205° |
| 2026-04-30 10:20 | 8.36098 | -26.93560 | 37015 ft | 504 kts | 206° |
| 2026-04-30 10:21 | 8.29702 | -26.96495 | 37016 ft | 505 kts | 206° |
| 2026-04-30 10:21 | 8.23308 | -26.99428 | 37011 ft | 504 kts | 206° |
| 2026-04-30 10:22 | 8.16919 | -27.02357 | 37011 ft | 504 kts | 205° |
| 2026-04-30 10:22 | 8.10562 | -27.05270 | 37007 ft | 504 kts | 206° |
| 2026-04-30 10:23 | 8.04155 | -27.08206 | 37008 ft | 505 kts | 206° |
| 2026-04-30 10:23 | 7.97752 | -27.11138 | 37004 ft | 505 kts | 206° |
| 2026-04-30 10:24 | 7.91381 | -27.14055 | 37006 ft | 506 kts | 205° |
| 2026-04-30 10:24 | 7.84973 | -27.16988 | 37007 ft | 505 kts | 205° |
| 2026-04-30 10:25 | 7.78561 | -27.19922 | 37003 ft | 506 kts | 205° |
| 2026-04-30 10:25 | 7.72142 | -27.22858 | 37001 ft | 506 kts | 205° |
| 2026-04-30 10:26 | 7.65732 | -27.25789 | 37001 ft | 506 kts | 206° |
| 2026-04-30 10:26 | 7.59311 | -27.28724 | 36996 ft | 507 kts | 205° |
| 2026-04-30 10:27 | 7.52930 | -27.31639 | 37001 ft | 506 kts | 206° |
| 2026-04-30 10:27 | 7.46510 | -27.34572 | 36998 ft | 506 kts | 205° |
| 2026-04-30 10:28 | 7.40087 | -27.37505 | 36999 ft | 506 kts | 206° |
| 2026-04-30 10:28 | 7.33675 | -27.40432 | 36997 ft | 506 kts | 206° |
| 2026-04-30 10:29 | 7.27248 | -27.43365 | 36997 ft | 507 kts | 206° |
| 2026-04-30 10:29 | 7.20872 | -27.46273 | 36996 ft | 506 kts | 205° |
| 2026-04-30 10:30 | 7.14457 | -27.49199 | 36996 ft | 506 kts | 206° |
| 2026-04-30 10:30 | 7.08043 | -27.52123 | 37000 ft | 506 kts | 206° |
| 2026-04-30 10:31 | 7.01618 | -27.55052 | 37001 ft | 506 kts | 206° |
| 2026-04-30 10:31 | 6.95195 | -27.57978 | 36995 ft | 506 kts | 206° |
| 2026-04-30 10:32 | 6.88780 | -27.60900 | 36991 ft | 507 kts | 206° |
| 2026-04-30 10:32 | 6.82352 | -27.63828 | 36994 ft | 507 kts | 206° |
| 2026-04-30 10:33 | 6.75970 | -27.66736 | 36995 ft | 506 kts | 206° |
| 2026-04-30 10:33 | 6.69554 | -27.69658 | 37001 ft | 506 kts | 206° |
| 2026-04-30 10:34 | 6.63123 | -27.72586 | 37002 ft | 506 kts | 206° |
| 2026-04-30 10:34 | 6.56698 | -27.75511 | 37002 ft | 507 kts | 206° |
| 2026-04-30 10:35 | 6.50280 | -27.78431 | 36999 ft | 507 kts | 206° |
| 2026-04-30 10:35 | 6.43849 | -27.81357 | 37000 ft | 507 kts | 206° |
| 2026-04-30 10:36 | 6.37418 | -27.84282 | 37001 ft | 507 kts | 206° |
| 2026-04-30 10:36 | 6.31027 | -27.87188 | 37000 ft | 507 kts | 206° |
| 2026-04-30 10:37 | 6.24600 | -27.90109 | 36996 ft | 507 kts | 206° |
| 2026-04-30 10:37 | 6.18174 | -27.93030 | 36994 ft | 507 kts | 206° |
| 2026-04-30 10:38 | 6.11736 | -27.95955 | 36992 ft | 507 kts | 206° |
| 2026-04-30 10:38 | 6.06394 | -27.98381 | 36993 ft | 507 kts | 206° |
| 2026-04-30 10:39 | 5.99973 | -28.01296 | 36988 ft | 507 kts | 206° |
| 2026-04-30 10:39 | 5.93544 | -28.04215 | 36992 ft | 507 kts | 206° |
| 2026-04-30 10:40 | 5.87109 | -28.07136 | 36990 ft | 507 kts | 206° |
| 2026-04-30 10:40 | 5.80675 | -28.10055 | 36992 ft | 506 kts | 206° |
| 2026-04-30 10:41 | 5.74263 | -28.12964 | 36985 ft | 506 kts | 206° |
| 2026-04-30 10:41 | 5.67880 | -28.15858 | 36988 ft | 506 kts | 206° |
| 2026-04-30 10:42 | 5.61459 | -28.18770 | 36985 ft | 507 kts | 206° |
| 2026-04-30 10:42 | 5.55039 | -28.21680 | 36986 ft | 506 kts | 206° |
| 2026-04-30 10:43 | 5.48618 | -28.24590 | 36984 ft | 506 kts | 206° |
| 2026-04-30 10:43 | 5.42192 | -28.27501 | 36982 ft | 506 kts | 206° |
| 2026-04-30 10:44 | 5.35769 | -28.30411 | 36984 ft | 506 kts | 206° |
| 2026-04-30 10:44 | 5.29353 | -28.33317 | 36984 ft | 506 kts | 206° |
| 2026-04-30 10:45 | 5.22927 | -28.36226 | 36983 ft | 506 kts | 206° |
| 2026-04-30 10:45 | 5.16500 | -28.39135 | 36981 ft | 507 kts | 206° |
| 2026-04-30 10:46 | 5.10118 | -28.42023 | 36981 ft | 506 kts | 206° |
| 2026-04-30 10:46 | 5.03689 | -28.44932 | 36980 ft | 506 kts | 206° |
| 2026-04-30 10:47 | 4.97257 | -28.47842 | 36980 ft | 507 kts | 206° |
| 2026-04-30 10:47 | 4.90825 | -28.50751 | 36982 ft | 508 kts | 206° |
| 2026-04-30 10:48 | 4.84386 | -28.53662 | 36982 ft | 507 kts | 206° |
| 2026-04-30 10:48 | 4.77979 | -28.56559 | 36980 ft | 508 kts | 206° |
| 2026-04-30 10:49 | 4.71540 | -28.59469 | 36973 ft | 507 kts | 206° |
| 2026-04-30 10:49 | 4.65072 | -28.62392 | 36969 ft | 506 kts | 206° |
| 2026-04-30 10:50 | 4.58698 | -28.65272 | 36969 ft | 506 kts | 206° |
| 2026-04-30 10:50 | 4.52269 | -28.68176 | 36974 ft | 505 kts | 206° |
| 2026-04-30 10:51 | 4.45868 | -28.71067 | 36974 ft | 504 kts | 206° |
| 2026-04-30 10:51 | 4.39459 | -28.73961 | 36970 ft | 506 kts | 206° |
| 2026-04-30 10:52 | 4.33035 | -28.76861 | 36972 ft | 507 kts | 206° |
| 2026-04-30 10:52 | 4.26580 | -28.79774 | 36974 ft | 508 kts | 206° |
| 2026-04-30 10:53 | 4.20182 | -28.82662 | 36966 ft | 506 kts | 206° |
| 2026-04-30 10:53 | 4.13764 | -28.85557 | 36965 ft | 505 kts | 206° |
| 2026-04-30 10:54 | 4.07338 | -28.88457 | 36969 ft | 507 kts | 206° |
| 2026-04-30 10:54 | 4.00882 | -28.91368 | 36972 ft | 508 kts | 206° |
| 2026-04-30 10:55 | 3.94410 | -28.94287 | 36975 ft | 510 kts | 206° |
| 2026-04-30 10:55 | 3.87986 | -28.97183 | 36975 ft | 507 kts | 206° |
| 2026-04-30 10:56 | 3.81550 | -29.00085 | 36972 ft | 506 kts | 206° |
| 2026-04-30 10:56 | 3.75123 | -29.02982 | 36969 ft | 506 kts | 206° |
| 2026-04-30 10:57 | 3.68693 | -29.05880 | 36964 ft | 506 kts | 206° |
| 2026-04-30 10:57 | 3.62263 | -29.08777 | 36962 ft | 508 kts | 206° |
| 2026-04-30 10:58 | 3.55816 | -29.11681 | 36963 ft | 508 kts | 206° |
| 2026-04-30 10:58 | 3.49403 | -29.14570 | 36964 ft | 508 kts | 205° |
| 2026-04-30 10:59 | 3.42955 | -29.17474 | 36965 ft | 508 kts | 206° |
| 2026-04-30 10:59 | 3.36499 | -29.20379 | 36966 ft | 509 kts | 205° |
| 2026-04-30 11:00 | 3.30046 | -29.23278 | 36961 ft | 508 kts | 205° |
| 2026-04-30 11:00 | 3.23615 | -29.26167 | 36962 ft | 508 kts | 205° |
| 2026-04-30 11:01 | 3.17163 | -29.29066 | 36963 ft | 507 kts | 205° |
| 2026-04-30 11:01 | 3.10708 | -29.31966 | 36962 ft | 507 kts | 205° |
| 2026-04-30 11:02 | 3.04300 | -29.34844 | 36964 ft | 508 kts | 205° |
| 2026-04-30 11:02 | 2.97860 | -29.37737 | 36963 ft | 508 kts | 205° |
| 2026-04-30 11:03 | 2.91419 | -29.40629 | 36960 ft | 508 kts | 205° |
| 2026-04-30 11:04 | 2.81737 | -29.44976 | 36964 ft | 508 kts | 205° |
| 2026-04-30 11:04 | 2.75293 | -29.47869 | 36964 ft | 508 kts | 205° |
| 2026-04-30 11:05 | 2.68849 | -29.50762 | 36964 ft | 507 kts | 205° |
| 2026-04-30 11:05 | 2.62427 | -29.53644 | 36962 ft | 508 kts | 205° |
| 2026-04-30 11:06 | 2.55976 | -29.56538 | 36963 ft | 508 kts | 205° |
| 2026-04-30 11:06 | 2.49535 | -29.59429 | 36962 ft | 508 kts | 205° |
| 2026-04-30 11:07 | 2.43075 | -29.62328 | 36964 ft | 508 kts | 205° |
| 2026-04-30 11:07 | 2.36625 | -29.65221 | 36964 ft | 508 kts | 205° |
| 2026-04-30 11:08 | 2.30171 | -29.68117 | 36962 ft | 507 kts | 205° |
| 2026-04-30 11:08 | 2.23711 | -29.71013 | 36963 ft | 510 kts | 205° |
| 2026-04-30 11:09 | 2.17282 | -29.73897 | 36964 ft | 510 kts | 205° |
| 2026-04-30 11:09 | 2.10827 | -29.76792 | 36962 ft | 508 kts | 205° |
| 2026-04-30 11:10 | 2.04391 | -29.79677 | 36963 ft | 507 kts | 205° |
| 2026-04-30 11:10 | 1.97939 | -29.82570 | 37480 ft | 498 kts | 205° |
| 2026-04-30 11:10 | 1.94794 | -29.83980 | 37942 ft | 495 kts | 205° |
| 2026-04-30 11:11 | 1.91639 | -29.85395 | 38134 ft | 496 kts | 205° |
| 2026-04-30 11:11 | 1.88498 | -29.86804 | 38464 ft | 494 kts | 205° |
| 2026-04-30 11:11 | 1.85358 | -29.88210 | 38625 ft | 496 kts | 205° |
| 2026-04-30 11:11 | 1.82217 | -29.89618 | 38903 ft | 493 kts | 205° |
| 2026-04-30 11:12 | 1.79086 | -29.91022 | 39143 ft | 492 kts | 205° |
| 2026-04-30 11:12 | 1.75992 | -29.92409 | 39328 ft | 492 kts | 205° |
| 2026-04-30 11:12 | 1.72875 | -29.93806 | 39590 ft | 490 kts | 205° |
| 2026-04-30 11:12 | 1.69771 | -29.95197 | 39724 ft | 491 kts | 205° |
| 2026-04-30 11:13 | 1.66619 | -29.96610 | 39710 ft | 496 kts | 205° |
| 2026-04-30 11:13 | 1.60277 | -29.99452 | 39728 ft | 503 kts | 205° |
| 2026-04-30 11:13 | 1.57082 | -30.00884 | 39961 ft | 501 kts | 205° |
| 2026-04-30 11:14 | 1.53905 | -30.02309 | 40126 ft | 501 kts | 205° |
| 2026-04-30 11:14 | 1.50723 | -30.03738 | 40298 ft | 500 kts | 205° |
| 2026-04-30 11:14 | 1.47546 | -30.05162 | 40489 ft | 499 kts | 205° |
| 2026-04-30 11:14 | 1.44421 | -30.06563 | 40632 ft | 499 kts | 205° |
| 2026-04-30 11:15 | 1.41250 | -30.07986 | 40816 ft | 498 kts | 205° |
| 2026-04-30 11:15 | 1.38087 | -30.09404 | 40971 ft | 499 kts | 205° |
| 2026-04-30 11:15 | 1.34913 | -30.10828 | 40954 ft | 501 kts | 205° |
| 2026-04-30 11:16 | 1.28569 | -30.13672 | 40949 ft | 498 kts | 205° |
| 2026-04-30 11:16 | 1.22254 | -30.16505 | 40952 ft | 497 kts | 205° |
| 2026-04-30 11:17 | 1.15933 | -30.19339 | 40948 ft | 497 kts | 205° |
| 2026-04-30 11:17 | 1.09659 | -30.22152 | 40942 ft | 497 kts | 205° |
| 2026-04-30 11:18 | 1.03364 | -30.24975 | 40945 ft | 496 kts | 205° |
| 2026-04-30 11:18 | 0.93901 | -30.29217 | 40947 ft | 497 kts | 205° |
| 2026-04-30 11:19 | 0.87589 | -30.32047 | 40946 ft | 498 kts | 205° |
| 2026-04-30 11:19 | 0.81263 | -30.34883 | 40950 ft | 498 kts | 205° |
| 2026-04-30 11:20 | 0.74929 | -30.37722 | 40951 ft | 499 kts | 205° |
| 2026-04-30 11:20 | 0.68604 | -30.40557 | 40946 ft | 498 kts | 205° |
| 2026-04-30 11:21 | 0.62296 | -30.43385 | 40940 ft | 495 kts | 205° |
| 2026-04-30 11:21 | 0.56049 | -30.46185 | 40937 ft | 495 kts | 205° |
| 2026-04-30 11:22 | 0.49764 | -30.49003 | 40942 ft | 496 kts | 205° |
| 2026-04-30 11:22 | 0.43467 | -30.51825 | 40946 ft | 497 kts | 205° |
| 2026-04-30 11:23 | 0.37139 | -30.54661 | 40947 ft | 498 kts | 205° |
| 2026-04-30 11:24 | 0.27663 | -30.58909 | 40942 ft | 498 kts | 205° |
| 2026-04-30 11:24 | 0.21328 | -30.61749 | 40943 ft | 499 kts | 205° |
| 2026-04-30 11:25 | 0.11885 | -30.65983 | 40941 ft | 497 kts | 205° |
| 2026-04-30 11:26 | -0.00697 | -30.71623 | 40942 ft | 494 kts | 205° |
| 2026-04-30 11:26 | -0.07005 | -30.74451 | 40941 ft | 499 kts | 205° |
| 2026-04-30 11:27 | -0.13354 | -30.77297 | 40949 ft | 499 kts | 205° |
| 2026-04-30 11:27 | -0.19693 | -30.80139 | 40939 ft | 499 kts | 205° |
| 2026-04-30 11:28 | -0.29136 | -30.84372 | 40939 ft | 497 kts | 205° |
| 2026-04-30 11:29 | -0.34437 | -30.86749 | 40935 ft | 497 kts | 205° |
| 2026-04-30 11:29 | -0.43854 | -30.90971 | 40936 ft | 497 kts | 205° |
| 2026-04-30 11:30 | -0.53346 | -30.95226 | 40937 ft | 499 kts | 205° |
| 2026-04-30 11:31 | -0.59709 | -30.98079 | 40939 ft | 500 kts | 205° |
| 2026-04-30 11:31 | -0.66035 | -31.00916 | 40932 ft | 497 kts | 205° |
| 2026-04-30 11:32 | -0.72360 | -31.03751 | 40945 ft | 500 kts | 205° |
| 2026-04-30 11:32 | -0.78707 | -31.06597 | 40941 ft | 500 kts | 205° |
| 2026-04-30 11:33 | -0.88247 | -31.10719 | 40946 ft | 499 kts | 204° |
| 2026-04-30 11:33 | -0.94624 | -31.13475 | 40948 ft | 499 kts | 204° |
| 2026-04-30 11:34 | -1.01030 | -31.16156 | 40949 ft | 499 kts | 204° |
| 2026-04-30 11:34 | -1.07436 | -31.18890 | 40939 ft | 500 kts | 204° |
| 2026-04-30 11:35 | -1.13844 | -31.21594 | 40948 ft | 500 kts | 204° |
| 2026-04-30 11:35 | -1.20220 | -31.24302 | 40943 ft | 501 kts | 204° |
| 2026-04-30 11:36 | -1.26631 | -31.27017 | 40952 ft | 501 kts | 204° |
| 2026-04-30 11:36 | -1.33080 | -31.29751 | 40949 ft | 502 kts | 204° |
| 2026-04-30 11:37 | -1.39502 | -31.32472 | 40956 ft | 501 kts | 204° |
| 2026-04-30 11:37 | -1.45921 | -31.35194 | 40952 ft | 501 kts | 203° |
| 2026-04-30 11:38 | -1.52337 | -31.37913 | 40940 ft | 500 kts | 203° |
| 2026-04-30 11:38 | -1.58747 | -31.40630 | 40942 ft | 500 kts | 204° |
| 2026-04-30 11:39 | -1.65122 | -31.43333 | 40952 ft | 500 kts | 203° |
| 2026-04-30 11:39 | -1.71526 | -31.46048 | 40951 ft | 500 kts | 203° |
| 2026-04-30 11:40 | -1.77925 | -31.48762 | 40952 ft | 500 kts | 203° |
| 2026-04-30 11:40 | -1.84334 | -31.51479 | 40952 ft | 500 kts | 203° |
| 2026-04-30 11:41 | -1.90734 | -31.54193 | 40946 ft | 500 kts | 203° |
| 2026-04-30 11:41 | -1.97134 | -31.56908 | 40949 ft | 499 kts | 203° |
| 2026-04-30 11:42 | -2.03540 | -31.59625 | 40949 ft | 499 kts | 203° |
| 2026-04-30 11:42 | -2.09942 | -31.62340 | 40939 ft | 500 kts | 203° |
| 2026-04-30 11:43 | -2.16306 | -31.65040 | 40951 ft | 500 kts | 203° |
| 2026-04-30 11:43 | -2.22709 | -31.67757 | 40945 ft | 499 kts | 203° |
| 2026-04-30 11:44 | -2.29119 | -31.70476 | 40945 ft | 500 kts | 204° |
| 2026-04-30 11:44 | -2.35536 | -31.73200 | 40954 ft | 502 kts | 203° |
| 2026-04-30 11:45 | -2.41954 | -31.75923 | 40946 ft | 501 kts | 203° |
| 2026-04-30 11:45 | -2.48387 | -31.78654 | 40952 ft | 501 kts | 203° |
| 2026-04-30 11:46 | -2.54804 | -31.81377 | 40945 ft | 500 kts | 204° |
| 2026-04-30 11:46 | -2.61168 | -31.84079 | 40947 ft | 500 kts | 204° |
| 2026-04-30 11:47 | -2.67557 | -31.86792 | 40949 ft | 499 kts | 204° |
| 2026-04-30 11:47 | -2.73955 | -31.89508 | 40942 ft | 499 kts | 204° |
| 2026-04-30 11:48 | -2.80352 | -31.92225 | 40948 ft | 500 kts | 204° |
| 2026-04-30 11:48 | -2.86759 | -31.94946 | 40954 ft | 500 kts | 204° |
| 2026-04-30 11:49 | -2.93155 | -31.97663 | 40940 ft | 499 kts | 204° |
| 2026-04-30 11:49 | -2.99546 | -32.00378 | 40954 ft | 498 kts | 204° |
| 2026-04-30 11:50 | -3.05918 | -32.03085 | 40953 ft | 500 kts | 204° |
| 2026-04-30 11:50 | -3.12302 | -32.05798 | 40959 ft | 500 kts | 204° |
| 2026-04-30 11:51 | -3.18694 | -32.08515 | 40950 ft | 498 kts | 204° |
| 2026-04-30 11:51 | -3.25084 | -32.11231 | 40955 ft | 498 kts | 204° |
| 2026-04-30 11:52 | -3.31317 | -32.14301 | 40951 ft | 501 kts | 208° |
| 2026-04-30 11:52 | -3.37477 | -32.17556 | 40954 ft | 501 kts | 208° |
| 2026-04-30 11:53 | -3.43599 | -32.20782 | 40944 ft | 499 kts | 208° |
| 2026-04-30 11:53 | -3.49751 | -32.24031 | 40945 ft | 499 kts | 208° |
| 2026-04-30 11:54 | -3.55906 | -32.27277 | 40948 ft | 500 kts | 208° |
| 2026-04-30 11:54 | -3.62056 | -32.30523 | 40950 ft | 501 kts | 208° |
| 2026-04-30 11:55 | -3.68210 | -32.33772 | 40944 ft | 499 kts | 208° |
| 2026-04-30 11:55 | -3.74375 | -32.37027 | 40943 ft | 501 kts | 208° |
| 2026-04-30 11:56 | -3.80565 | -32.40294 | 40943 ft | 502 kts | 208° |
| 2026-04-30 11:56 | -3.86739 | -32.43554 | 40949 ft | 502 kts | 208° |
| 2026-04-30 11:57 | -3.92965 | -32.46739 | 40949 ft | 503 kts | 207° |
| 2026-04-30 11:57 | -3.99187 | -32.49945 | 40950 ft | 502 kts | 208° |
| 2026-04-30 11:58 | -4.05376 | -32.53129 | 40950 ft | 503 kts | 208° |
| 2026-04-30 11:58 | -4.11600 | -32.56331 | 40957 ft | 503 kts | 208° |
| 2026-04-30 11:59 | -4.17822 | -32.59536 | 40957 ft | 503 kts | 208° |
| 2026-04-30 11:59 | -4.24058 | -32.62745 | 40960 ft | 504 kts | 208° |
| 2026-04-30 12:00 | -4.30300 | -32.65959 | 40948 ft | 504 kts | 208° |
| 2026-04-30 12:00 | -4.36547 | -32.69176 | 40953 ft | 505 kts | 208° |
| 2026-04-30 12:01 | -4.42781 | -32.72388 | 40959 ft | 504 kts | 208° |
| 2026-04-30 12:01 | -4.49015 | -32.75600 | 40957 ft | 504 kts | 208° |
| 2026-04-30 12:02 | -4.55253 | -32.78815 | 40951 ft | 504 kts | 208° |
| 2026-04-30 12:02 | -4.61495 | -32.82031 | 40954 ft | 505 kts | 208° |
| 2026-04-30 12:03 | -4.70873 | -32.86845 | 40959 ft | 504 kts | 208° |
| 2026-04-30 12:04 | -4.77069 | -32.90032 | 40956 ft | 505 kts | 208° |
| 2026-04-30 12:04 | -4.83339 | -32.93254 | 40962 ft | 507 kts | 208° |
| 2026-04-30 12:05 | -4.89612 | -32.96480 | 40963 ft | 506 kts | 208° |
| 2026-04-30 12:05 | -4.95886 | -32.99705 | 40962 ft | 506 kts | 208° |
| 2026-04-30 12:06 | -5.02163 | -33.02934 | 40966 ft | 506 kts | 208° |
| 2026-04-30 12:06 | -5.08424 | -33.06155 | 40966 ft | 506 kts | 209° |
| 2026-04-30 12:07 | -5.14695 | -33.09382 | 40959 ft | 507 kts | 208° |
| 2026-04-30 12:07 | -5.20971 | -33.12613 | 40960 ft | 507 kts | 208° |
| 2026-04-30 12:08 | -5.27218 | -33.15828 | 40962 ft | 508 kts | 208° |
| 2026-04-30 12:08 | -5.33512 | -33.19069 | 40966 ft | 509 kts | 209° |
| 2026-04-30 12:09 | -5.39815 | -33.22316 | 40966 ft | 509 kts | 208° |
| 2026-04-30 12:09 | -5.46097 | -33.25552 | 40959 ft | 507 kts | 208° |
| 2026-04-30 12:10 | -5.52383 | -33.28790 | 40960 ft | 507 kts | 209° |
| 2026-04-30 12:10 | -5.58671 | -33.32031 | 40959 ft | 508 kts | 208° |
| 2026-04-30 12:11 | -5.64932 | -33.35260 | 40958 ft | 509 kts | 208° |
| 2026-04-30 12:11 | -5.71235 | -33.38510 | 40964 ft | 509 kts | 209° |
| 2026-04-30 12:12 | -5.77521 | -33.41751 | 40960 ft | 507 kts | 209° |
| 2026-04-30 12:12 | -5.83791 | -33.44987 | 40964 ft | 507 kts | 208° |
| 2026-04-30 12:13 | -5.90060 | -33.48222 | 40957 ft | 507 kts | 208° |
| 2026-04-30 12:13 | -5.96335 | -33.51461 | 40964 ft | 507 kts | 209° |
| 2026-04-30 12:14 | -6.02618 | -33.54704 | 40963 ft | 507 kts | 209° |
| 2026-04-30 12:14 | -6.08892 | -33.57946 | 40967 ft | 507 kts | 208° |
| 2026-04-30 12:15 | -6.15173 | -33.61190 | 40966 ft | 507 kts | 208° |
| 2026-04-30 12:15 | -6.21409 | -33.64412 | 40964 ft | 507 kts | 209° |
| 2026-04-30 12:16 | -6.27683 | -33.67654 | 40951 ft | 507 kts | 209° |
| 2026-04-30 12:16 | -6.33953 | -33.70896 | 40955 ft | 507 kts | 209° |
| 2026-04-30 12:17 | -6.43343 | -33.75752 | 40954 ft | 505 kts | 209° |
| 2026-04-30 12:17 | -6.49592 | -33.78986 | 40955 ft | 505 kts | 209° |
| 2026-04-30 12:18 | -6.55798 | -33.82198 | 40955 ft | 505 kts | 208° |
| 2026-04-30 12:18 | -6.62055 | -33.85436 | 40959 ft | 505 kts | 208° |
| 2026-04-30 12:19 | -6.67257 | -33.88130 | 40969 ft | 506 kts | 208° |
| 2026-04-30 12:19 | -6.73508 | -33.91368 | 40956 ft | 505 kts | 208° |
| 2026-04-30 12:20 | -6.79764 | -33.94608 | 40967 ft | 505 kts | 209° |
| 2026-04-30 12:20 | -6.86011 | -33.97845 | 40969 ft | 505 kts | 209° |
| 2026-04-30 12:21 | -6.92274 | -34.01092 | 40969 ft | 506 kts | 208° |
| 2026-04-30 12:21 | -6.98528 | -34.04336 | 40961 ft | 505 kts | 208° |
| 2026-04-30 12:22 | -7.04775 | -34.07576 | 40964 ft | 505 kts | 209° |
| 2026-04-30 12:22 | -7.10989 | -34.10799 | 40972 ft | 506 kts | 209° |
| 2026-04-30 12:23 | -7.17284 | -34.14067 | 40967 ft | 506 kts | 208° |
| 2026-04-30 12:23 | -7.23496 | -34.17293 | 40972 ft | 506 kts | 208° |
| 2026-04-30 12:24 | -7.29757 | -34.20544 | 40975 ft | 506 kts | 209° |
| 2026-04-30 12:24 | -7.36016 | -34.23795 | 40969 ft | 505 kts | 209° |
| 2026-04-30 12:25 | -7.42258 | -34.27039 | 40974 ft | 505 kts | 208° |
| 2026-04-30 12:25 | -7.48493 | -34.30281 | 40971 ft | 504 kts | 208° |
| 2026-04-30 12:26 | -7.54740 | -34.33529 | 40974 ft | 505 kts | 208° |
| 2026-04-30 12:26 | -7.60994 | -34.36782 | 40977 ft | 507 kts | 208° |
| 2026-04-30 12:27 | -7.67265 | -34.40045 | 40981 ft | 507 kts | 208° |
| 2026-04-30 12:27 | -7.73500 | -34.43290 | 40978 ft | 506 kts | 208° |
| 2026-04-30 12:28 | -7.79311 | -34.47242 | 40977 ft | 504 kts | 220° |
| 2026-04-30 12:28 | -7.84793 | -34.51652 | 40985 ft | 505 kts | 219° |
| 2026-04-30 12:29 | -7.90299 | -34.56051 | 40986 ft | 505 kts | 219° |
| 2026-04-30 12:29 | -7.95805 | -34.60469 | 40985 ft | 505 kts | 219° |
| 2026-04-30 12:30 | -8.01309 | -34.64878 | 40987 ft | 505 kts | 219° |
| 2026-04-30 12:30 | -8.06774 | -34.69261 | 40981 ft | 505 kts | 219° |
| 2026-04-30 12:31 | -8.12273 | -34.73671 | 40977 ft | 505 kts | 219° |
| 2026-04-30 12:31 | -8.17782 | -34.78084 | 40975 ft | 505 kts | 217° |
| 2026-04-30 12:32 | -8.23557 | -34.82134 | 40971 ft | 505 kts | 215° |
| 2026-04-30 12:32 | -8.29335 | -34.86187 | 40979 ft | 505 kts | 215° |
| 2026-04-30 12:33 | -8.35124 | -34.90228 | 40984 ft | 506 kts | 215° |
| 2026-04-30 12:33 | -8.40904 | -34.94278 | 40981 ft | 506 kts | 215° |
| 2026-04-30 12:34 | -8.46670 | -34.98311 | 40991 ft | 508 kts | 215° |
| 2026-04-30 12:34 | -8.52469 | -35.02373 | 40987 ft | 506 kts | 215° |
| 2026-04-30 12:35 | -8.58255 | -35.06426 | 40988 ft | 506 kts | 215° |
| 2026-04-30 12:35 | -8.64044 | -35.10483 | 40987 ft | 506 kts | 215° |
| 2026-04-30 12:36 | -8.69816 | -35.14530 | 40990 ft | 506 kts | 215° |
| 2026-04-30 12:36 | -8.75616 | -35.18598 | 40997 ft | 507 kts | 215° |
| 2026-04-30 12:37 | -8.81375 | -35.22638 | 40994 ft | 507 kts | 215° |
| 2026-04-30 12:37 | -8.87173 | -35.26708 | 40998 ft | 507 kts | 215° |
| 2026-04-30 12:38 | -8.92959 | -35.30771 | 40996 ft | 506 kts | 215° |
| 2026-04-30 12:38 | -8.98735 | -35.34828 | 40999 ft | 506 kts | 214° |
| 2026-04-30 12:39 | -9.04527 | -35.38899 | 41003 ft | 506 kts | 214° |
| 2026-04-30 12:39 | -9.10318 | -35.42969 | 41007 ft | 507 kts | 214° |
| 2026-04-30 12:40 | -9.16109 | -35.47042 | 41007 ft | 507 kts | 214° |
| 2026-04-30 12:40 | -9.21893 | -35.51112 | 41009 ft | 506 kts | 214° |
| 2026-04-30 12:41 | -9.27666 | -35.55176 | 41004 ft | 505 kts | 214° |
| 2026-04-30 12:41 | -9.33428 | -35.59233 | 41006 ft | 504 kts | 214° |
| 2026-04-30 12:42 | -9.39188 | -35.63291 | 40999 ft | 504 kts | 214° |
| 2026-04-30 12:42 | -9.44948 | -35.67351 | 40998 ft | 505 kts | 214° |
| 2026-04-30 12:43 | -9.50676 | -35.71390 | 40997 ft | 505 kts | 214° |
| 2026-04-30 12:43 | -9.56445 | -35.75459 | 40996 ft | 505 kts | 214° |
| 2026-04-30 12:44 | -9.62207 | -35.79526 | 40999 ft | 504 kts | 214° |
| 2026-04-30 12:44 | -9.67955 | -35.83584 | 41002 ft | 504 kts | 214° |
| 2026-04-30 12:45 | -9.73711 | -35.87648 | 41006 ft | 504 kts | 214° |
| 2026-04-30 12:45 | -9.79460 | -35.91711 | 41013 ft | 503 kts | 214° |
| 2026-04-30 12:46 | -9.85204 | -35.95772 | 41017 ft | 503 kts | 213° |
| 2026-04-30 12:46 | -9.90954 | -35.99838 | 41015 ft | 504 kts | 214° |
| 2026-04-30 12:47 | -9.96664 | -36.03877 | 41008 ft | 503 kts | 214° |
| 2026-04-30 12:47 | -10.02403 | -36.07939 | 41011 ft | 503 kts | 213° |
| 2026-04-30 12:48 | -10.08138 | -36.12001 | 41014 ft | 503 kts | 213° |
| 2026-04-30 12:48 | -10.13883 | -36.16071 | 41012 ft | 504 kts | 213° |
| 2026-04-30 12:49 | -10.19640 | -36.20151 | 41014 ft | 505 kts | 213° |
| 2026-04-30 12:49 | -10.25406 | -36.24240 | 41014 ft | 504 kts | 213° |
| 2026-04-30 12:50 | -10.31156 | -36.28319 | 41003 ft | 504 kts | 213° |
| 2026-04-30 12:50 | -10.36895 | -36.32392 | 41001 ft | 503 kts | 213° |
| 2026-04-30 12:51 | -10.42588 | -36.36434 | 41002 ft | 503 kts | 213° |
| 2026-04-30 12:51 | -10.48328 | -36.40512 | 41002 ft | 503 kts | 213° |
| 2026-04-30 12:52 | -10.54057 | -36.44583 | 40998 ft | 502 kts | 213° |
| 2026-04-30 12:52 | -10.59786 | -36.48656 | 40997 ft | 503 kts | 213° |
| 2026-04-30 12:53 | -10.65526 | -36.52740 | 40996 ft | 503 kts | 213° |
| 2026-04-30 12:53 | -10.71283 | -36.56837 | 40998 ft | 505 kts | 213° |
| 2026-04-30 12:54 | -10.77035 | -36.60932 | 41002 ft | 505 kts | 213° |
| 2026-04-30 12:54 | -10.82788 | -36.65031 | 40996 ft | 504 kts | 213° |
| 2026-04-30 12:55 | -10.88517 | -36.69141 | 40992 ft | 503 kts | 213° |
| 2026-04-30 12:55 | -10.94239 | -36.73258 | 40987 ft | 504 kts | 213° |
| 2026-04-30 12:56 | -10.99934 | -36.77348 | 40991 ft | 505 kts | 213° |
| 2026-04-30 12:56 | -11.05668 | -36.81475 | 41003 ft | 505 kts | 213° |
| 2026-04-30 12:57 | -11.11403 | -36.85599 | 41007 ft | 505 kts | 213° |
| 2026-04-30 12:57 | -11.17138 | -36.89730 | 41006 ft | 504 kts | 213° |
| 2026-04-30 12:58 | -11.22872 | -36.93859 | 41008 ft | 504 kts | 213° |
| 2026-04-30 12:58 | -11.28597 | -36.97986 | 40995 ft | 504 kts | 213° |
| 2026-04-30 12:59 | -11.34318 | -37.02111 | 40995 ft | 503 kts | 213° |
| 2026-04-30 12:59 | -11.39990 | -37.06202 | 40986 ft | 503 kts | 213° |
| 2026-04-30 13:00 | -11.45700 | -37.10324 | 40994 ft | 502 kts | 213° |
| 2026-04-30 13:00 | -11.51405 | -37.14443 | 40991 ft | 502 kts | 213° |
| 2026-04-30 13:01 | -11.57108 | -37.18564 | 40995 ft | 502 kts | 213° |
| 2026-04-30 13:01 | -11.62785 | -37.22667 | 40998 ft | 503 kts | 213° |
| 2026-04-30 13:02 | -11.68508 | -37.26806 | 41019 ft | 505 kts | 213° |
| 2026-04-30 13:02 | -11.74214 | -37.30936 | 40987 ft | 493 kts | 213° |
| 2026-04-30 13:03 | -11.76972 | -37.32935 | 40871 ft | 481 kts | 213° |
| 2026-04-30 13:03 | -11.79698 | -37.34906 | 40207 ft | 480 kts | 213° |
| 2026-04-30 13:03 | -11.82432 | -37.36882 | 39491 ft | 482 kts | 213° |
| 2026-04-30 13:03 | -11.85173 | -37.38869 | 38785 ft | 484 kts | 213° |
| 2026-04-30 13:04 | -11.87893 | -37.40841 | 37955 ft | 486 kts | 213° |
| 2026-04-30 13:04 | -11.90658 | -37.42845 | 37048 ft | 489 kts | 213° |
| 2026-04-30 13:04 | -11.93389 | -37.44925 | 36132 ft | 493 kts | 218° |
| 2026-04-30 13:04 | -11.96033 | -37.47190 | 35180 ft | 497 kts | 218° |
| 2026-04-30 13:05 | -11.98684 | -37.49464 | 34269 ft | 500 kts | 218° |
| 2026-04-30 13:05 | -12.01365 | -37.51753 | 33233 ft | 503 kts | 218° |
| 2026-04-30 13:05 | -12.04066 | -37.54054 | 32105 ft | 508 kts | 218° |
| 2026-04-30 13:06 | -12.09534 | -37.58729 | 29824 ft | 517 kts | 218° |
| 2026-04-30 13:06 | -12.12268 | -37.61069 | 29175 ft | 508 kts | 218° |
| 2026-04-30 13:06 | -12.14960 | -37.63371 | 28422 ft | 502 kts | 218° |
| 2026-04-30 13:06 | -12.17627 | -37.65650 | 27679 ft | 497 kts | 218° |
| 2026-04-30 13:07 | -12.19373 | -37.67143 | 27182 ft | 494 kts | 218° |
| 2026-04-30 13:07 | -12.22846 | -37.70116 | 26261 ft | 488 kts | 218° |
| 2026-04-30 13:07 | -12.25448 | -37.72344 | 25573 ft | 485 kts | 218° |
| 2026-04-30 13:07 | -12.28027 | -37.74552 | 24887 ft | 483 kts | 218° |
| 2026-04-30 13:08 | -12.30596 | -37.76752 | 24241 ft | 480 kts | 218° |
| 2026-04-30 13:08 | -12.33143 | -37.78935 | 23589 ft | 475 kts | 218° |
| 2026-04-30 13:08 | -12.35669 | -37.81100 | 22833 ft | 470 kts | 218° |
| 2026-04-30 13:08 | -12.37354 | -37.82544 | 22323 ft | 467 kts | 218° |
| 2026-04-30 13:09 | -12.39824 | -37.84661 | 21582 ft | 462 kts | 218° |
| 2026-04-30 13:09 | -12.42252 | -37.86743 | 20864 ft | 457 kts | 218° |
| 2026-04-30 13:09 | -12.44671 | -37.88818 | 20156 ft | 452 kts | 218° |
| 2026-04-30 13:09 | -12.47062 | -37.90869 | 19484 ft | 447 kts | 218° |
| 2026-04-30 13:10 | -12.49433 | -37.92904 | 18808 ft | 442 kts | 218° |
| 2026-04-30 13:10 | -12.51777 | -37.94916 | 18133 ft | 437 kts | 218° |
| 2026-04-30 13:10 | -12.54118 | -37.96896 | 17377 ft | 432 kts | 217° |
| 2026-04-30 13:10 | -12.56454 | -37.98803 | 16644 ft | 427 kts | 216° |
| 2026-04-30 13:11 | -12.58757 | -38.00689 | 15922 ft | 422 kts | 217° |
| 2026-04-30 13:11 | -12.61015 | -38.02573 | 15235 ft | 417 kts | 218° |
| 2026-04-30 13:11 | -12.63250 | -38.04442 | 14549 ft | 411 kts | 217° |
| 2026-04-30 13:11 | -12.65432 | -38.06250 | 13907 ft | 406 kts | 217° |
| 2026-04-30 13:12 | -12.67612 | -38.08054 | 13157 ft | 401 kts | 217° |
| 2026-04-30 13:12 | -12.69771 | -38.09848 | 12416 ft | 396 kts | 217° |
| 2026-04-30 13:12 | -12.71900 | -38.11619 | 11691 ft | 392 kts | 217° |
| 2026-04-30 13:13 | -12.76000 | -38.15194 | 10296 ft | 383 kts | 227° |
| 2026-04-30 13:13 | -12.77402 | -38.17500 | 9579 ft | 381 kts | 245° |
| 2026-04-30 13:13 | -12.78661 | -38.22698 | 8108 ft | 372 kts | 257° |
| 2026-04-30 13:14 | -12.79164 | -38.25275 | 7400 ft | 367 kts | 257° |
| 2026-04-30 13:14 | -12.79673 | -38.27822 | 6698 ft | 362 kts | 256° |
| 2026-04-30 13:14 | -12.80629 | -38.32465 | 5191 ft | 307 kts | 256° |
| 2026-04-30 13:15 | -12.81050 | -38.34533 | 4424 ft | 288 kts | 256° |
| 2026-04-30 13:15 | -12.81826 | -38.38348 | 4057 ft | 253 kts | 256° |
| 2026-04-30 13:15 | -12.82174 | -38.40073 | 3999 ft | 240 kts | 256° |
| 2026-04-30 13:16 | -12.82472 | -38.41562 | 3762 ft | 233 kts | 256° |
| 2026-04-30 13:16 | -12.82730 | -38.42860 | 3504 ft | 229 kts | 255° |
| 2026-04-30 13:16 | -12.83043 | -38.44412 | 3161 ft | 215 kts | 256° |
| 2026-04-30 13:17 | -12.83640 | -38.47394 | 2516 ft | 212 kts | 256° |
| 2026-04-30 13:17 | -12.83926 | -38.48826 | 2477 ft | 199 kts | 256° |
| 2026-04-30 13:17 | -12.84825 | -38.51389 | 2455 ft | 189 kts | 219° |
| 2026-04-30 13:18 | -12.85973 | -38.51970 | 2453 ft | 183 kts | 185° |
| 2026-04-30 13:18 | -12.88449 | -38.51585 | 2502 ft | 181 kts | 165° |
| 2026-04-30 13:18 | -12.89678 | -38.51322 | 2501 ft | 178 kts | 166° |
| 2026-04-30 13:19 | -12.90891 | -38.51071 | 2498 ft | 179 kts | 166° |
| 2026-04-30 13:19 | -12.92112 | -38.50819 | 2503 ft | 182 kts | 166° |
| 2026-04-30 13:19 | -12.93270 | -38.50383 | 2442 ft | 179 kts | 138° |
| 2026-04-30 13:19 | -12.93973 | -38.49370 | 2467 ft | 176 kts | 112° |
| 2026-04-30 13:20 | -12.94038 | -38.48141 | 2477 ft | 175 kts | 82° |
| 2026-04-30 13:20 | -12.93782 | -38.46900 | 2502 ft | 177 kts | 83° |
| 2026-04-30 13:20 | -12.93553 | -38.45688 | 2341 ft | 174 kts | 81° |
| 2026-04-30 13:20 | -12.93311 | -38.44480 | 2126 ft | 171 kts | 81° |
| 2026-04-30 13:21 | -12.93073 | -38.43293 | 1917 ft | 172 kts | 81° |
| 2026-04-30 13:21 | -12.92835 | -38.42098 | 1693 ft | 169 kts | 81° |
| 2026-04-30 13:21 | -12.92602 | -38.40968 | 1470 ft | 155 kts | 82° |
| 2026-04-30 13:22 | -12.92183 | -38.38858 | 1085 ft | 151 kts | 81° |
| 2026-04-30 13:22 | -12.91962 | -38.37803 | 874 ft | 149 kts | 80° |
| 2026-04-30 13:22 | -12.91548 | -38.35710 | 510 ft | 152 kts | 81° |
| 2026-04-30 13:23 | -12.91342 | -38.34692 | 315 ft | 148 kts | 83° |
| 2026-04-30 13:23 | -12.91026 | -38.33113 | 50 ft | 129 kts | 80° |